Observation data for Sierra Blanca on 04/16/2021      Previous  Date  Next       Current Mesonet Observations  Soil Data  Daily Summary Page  Observations in Plain Language
KSB1 160500Z 29015KT 22/M05 A2992 RMK A01 T02181047  RH  017%=      5-min Rain = 0
KSB1 160501Z 29012KT 22/M05 A2992 RMK A01 T02181047  RH  017%=      5-min Rain = 0
KSB1 160502Z 29013KT 22/M05 A2992 RMK A01 T02171047  RH  017%=      5-min Rain = 0
KSB1 160503Z 29014KT 22/M05 A2992 RMK A01 T02171047  RH  017%=      5-min Rain = 0
KSB1 160504Z 29013G20KT 22/M05 A2992 RMK A01 T02171047  RH  017%=      5-min Rain = 0
KSB1 160505Z 29015KT 22/M05 A2992 RMK A01 T02171047  RH  017%=      5-min Rain = 0
KSB1 160506Z 29015G21KT 22/M05 A2992 RMK A01 T02171047  RH  017%=      5-min Rain = 0
KSB1 160507Z 29016KT 22/M05 A2992 RMK A01 T02171047  RH  017%=      5-min Rain = 0
KSB1 160508Z 29013KT 22/M05 A2992 RMK A01 T02171047  RH  017%=      5-min Rain = 0
KSB1 160509Z 29014G21KT 22/M05 A2992 RMK A01 T02161047  RH  017%=      5-min Rain = 0
KSB1 160510Z 30015KT 22/M05 A2992 RMK A01 T02161047  RH  017%=      5-min Rain = 0
KSB1 160511Z 29016KT 22/M05 A2992 RMK A01 T02171047  RH  017%=      5-min Rain = 0
KSB1 160512Z 29015G20KT 22/M05 A2992 RMK A01 T02171047  RH  017%=      5-min Rain = 0
KSB1 160513Z 29017KT 22/M05 A2992 RMK A01 T02161047  RH  017%=      5-min Rain = 0
KSB1 160514Z 29013KT 22/M05 A2992 RMK A01 T02161047  RH  017%=      5-min Rain = 0
KSB1 160515Z 30009KT 22/M05 A2992 RMK A01 T02151047  RH  017%=      5-min Rain = 0
KSB1 160516Z 29012KT 21/M05 A2992 RMK A01 T02141047  RH  017%=      5-min Rain = 0
KSB1 160517Z 30014G19KT 21/M05 A2992 RMK A01 T02131047  RH  017%=      5-min Rain = 0
KSB1 160518Z 29016G21KT 21/M05 A2992 RMK A01 T02141047  RH  017%=      5-min Rain = 0
KSB1 160519Z 29013G22KT 21/M05 A2992 RMK A01 T02141047  RH  017%=      5-min Rain = 0
KSB1 160520Z 30015G22KT 22/M05 A2992 RMK A01 T02151047  RH  017%=      5-min Rain = 0
KSB1 160521Z 30015G21KT 22/M05 A2992 RMK A01 T02151047  RH  017%=      5-min Rain = 0
KSB1 160522Z 30012KT 22/M05 A2992 RMK A01 T02161047  RH  017%=      5-min Rain = 0
KSB1 160523Z 30011KT 22/M05 A2992 RMK A01 T02151048  RH  017%=      5-min Rain = 0
KSB1 160524Z 29016G21KT 21/M05 A2992 RMK A01 T02141048  RH  017%=      5-min Rain = 0
KSB1 160525Z 29015KT 21/M05 A2992 RMK A01 T02141049  RH  017%=      5-min Rain = 0
KSB1 160526Z 29015KT 21/M05 A2992 RMK A01 T02131049  RH  017%=      5-min Rain = 0
KSB1 160527Z 31013KT 21/M05 A2992 RMK A01 T02131050  RH  017%=      5-min Rain = 0
KSB1 160528Z 29015KT 21/M05 A2992 RMK A01 T02141050  RH  017%=      5-min Rain = 0
KSB1 160529Z 28016KT 21/M05 A2991 RMK A01 T02141051  RH  017%=      5-min Rain = 0
KSB1 160530Z 30014KT 21/M05 A2992 RMK A01 T02141052  RH  016%=      5-min Rain = 0
KSB1 160531Z 29015KT 21/M05 A2991 RMK A01 T02141053  RH  016%=      5-min Rain = 0
KSB1 160532Z 29013KT 21/M05 A2992 RMK A01 T02141054  RH  016%=      5-min Rain = 0
KSB1 160533Z 30010KT 21/M06 A2992 RMK A01 T02131055  RH  016%=      5-min Rain = 0
KSB1 160534Z 30010KT 21/M06 A2992 RMK A01 T02131055  RH  016%=      5-min Rain = 0
KSB1 160535Z 29013G18KT 21/M06 A2992 RMK A01 T02121056  RH  016%=      5-min Rain = 0
KSB1 160536Z 29013KT 21/M06 A2992 RMK A01 T02121056  RH  016%=      5-min Rain = 0
KSB1 160537Z 29012KT 21/M06 A2992 RMK A01 T02121056  RH  016%=      5-min Rain = 0
KSB1 160538Z 29011KT 21/M06 A2992 RMK A01 T02121056  RH  016%=      5-min Rain = 0
KSB1 160539Z 29011KT 21/M06 A2992 RMK A01 T02121057  RH  016%=      5-min Rain = 0
KSB1 160540Z 29012KT 21/M06 A2992 RMK A01 T02111057  RH  016%=      5-min Rain = 0
KSB1 160541Z 30012KT 21/M06 A2992 RMK A01 T02101057  RH  016%=      5-min Rain = 0
KSB1 160542Z 30010KT 21/M06 A2992 RMK A01 T02101057  RH  016%=      5-min Rain = 0
KSB1 160543Z 30010KT 21/M06 A2992 RMK A01 T02101058  RH  016%=      5-min Rain = 0
KSB1 160544Z 29010G16KT 21/M06 A2992 RMK A01 T02101059  RH  016%=      5-min Rain = 0
KSB1 160545Z 29013G19KT 21/M06 A2992 RMK A01 T02101060  RH  016%=      5-min Rain = 0
KSB1 160546Z 29015G20KT 21/M06 A2992 RMK A01 T02101061  RH  016%=      5-min Rain = 0
KSB1 160547Z 29015KT 21/M06 A2992 RMK A01 T02111061  RH  015%=      5-min Rain = 0
KSB1 160548Z 29016G23KT 21/M06 A2992 RMK A01 T02111062  RH  015%=      5-min Rain = 0
KSB1 160549Z 29017KT 21/M06 A2992 RMK A01 T02121062  RH  015%=      5-min Rain = 0
KSB1 160550Z 29015G21KT 21/M06 A2992 RMK A01 T02121063  RH  015%=      5-min Rain = 0
KSB1 160551Z 29014KT 21/M06 A2992 RMK A01 T02121063  RH  015%=      5-min Rain = 0
KSB1 160552Z 29012G17KT 21/M06 A2992 RMK A01 T02121062  RH  015%=      5-min Rain = 0
KSB1 160553Z 30017KT 21/M06 A2992 RMK A01 T02121061  RH  015%=      5-min Rain = 0
KSB1 160554Z 30016KT 21/M06 A2992 RMK A01 T02121062  RH  015%=      5-min Rain = 0
KSB1 160555Z 29014KT 21/M06 A2992 RMK A01 T02131062  RH  015%=      5-min Rain = 0
KSB1 160556Z 29013KT 21/M06 A2992 RMK A01 T02121063  RH  015%=      5-min Rain = 0
KSB1 160557Z 28013KT 21/M06 A2992 RMK A01 T02111063  RH  015%=      5-min Rain = 0
KSB1 160558Z 29012KT 21/M06 A2992 RMK A01 T02101062  RH  015%=      5-min Rain = 0
KSB1 160559Z 29014G21KT 21/M06 A2992 RMK A01 T02101062  RH  016%=      5-min Rain = 0
KSB1 160600Z 29015KT 21/M06 A2992 RMK A01 T02101061  RH  016%=      5-min Rain = 0
KSB1 160601Z 29015KT 21/M06 A2992 RMK A01 T02101060  RH  016%=      5-min Rain = 0
KSB1 160602Z 29015KT 21/M06 A2992 RMK A01 T02101059  RH  016%=      5-min Rain = 0
KSB1 160603Z 29014KT 21/M06 A2992 RMK A01 T02111059  RH  016%=      5-min Rain = 0
KSB1 160604Z 29012KT 21/M06 A2992 RMK A01 T02111060  RH  016%=      5-min Rain = 0
KSB1 160605Z 29011KT 21/M06 A2992 RMK A01 T02091061  RH  016%=      5-min Rain = 0
KSB1 160606Z 29010KT 21/M06 A2992 RMK A01 T02091061  RH  016%=      5-min Rain = 0
KSB1 160607Z 30016KT 21/M06 A2992 RMK A01 T02091061  RH  016%=      5-min Rain = 0
KSB1 160608Z 29013KT 21/M06 A2992 RMK A01 T02091061  RH  016%=      5-min Rain = 0
KSB1 160609Z 29012KT 21/M06 A2992 RMK A01 T02091062  RH  016%=      5-min Rain = 0
KSB1 160610Z 29012KT 21/M06 A2992 RMK A01 T02081062  RH  016%=      5-min Rain = 0
KSB1 160611Z 29012KT 21/M06 A2992 RMK A01 T02081062  RH  016%=      5-min Rain = 0
KSB1 160612Z 29011KT 21/M06 A2992 RMK A01 T02071062  RH  016%=      5-min Rain = 0
KSB1 160613Z 29012KT 21/M06 A2992 RMK A01 T02071062  RH  016%=      5-min Rain = 0
KSB1 160614Z 29012KT 21/M06 A2992 RMK A01 T02071062  RH  016%=      5-min Rain = 0
KSB1 160615Z 30012KT 21/M06 A2992 RMK A01 T02071062  RH  016%=      5-min Rain = 0
KSB1 160616Z 30013G18KT 21/M06 A2992 RMK A01 T02081062  RH  016%=      5-min Rain = 0
KSB1 160617Z 30012KT 21/M06 A2992 RMK A01 T02081062  RH  016%=      5-min Rain = 0
KSB1 160618Z 30012G17KT 21/M06 A2992 RMK A01 T02071063  RH  016%=      5-min Rain = 0
KSB1 160619Z 29014KT 21/M06 A2992 RMK A01 T02081063  RH  016%=      5-min Rain = 0
KSB1 160620Z 30011KT 21/M06 A2992 RMK A01 T02071064  RH  016%=      5-min Rain = 0
KSB1 160621Z 29010KT 21/M06 A2992 RMK A01 T02061064  RH  016%=      5-min Rain = 0
KSB1 160622Z 29012KT 21/M06 A2992 RMK A01 T02061064  RH  016%=      5-min Rain = 0
KSB1 160623Z 29015KT 21/M07 A2992 RMK A01 T02061065  RH  015%=      5-min Rain = 0
KSB1 160624Z 30013KT 21/M07 A2992 RMK A01 T02061066  RH  015%=      5-min Rain = 0
KSB1 160625Z 30011KT 21/M07 A2992 RMK A01 T02061066  RH  015%=      5-min Rain = 0
KSB1 160626Z 30013G18KT 21/M07 A2992 RMK A01 T02061066  RH  015%=      5-min Rain = 0
KSB1 160627Z 29014KT 21/M07 A2992 RMK A01 T02061067  RH  015%=      5-min Rain = 0
KSB1 160628Z 29013KT 21/M07 A2992 RMK A01 T02061067  RH  015%=      5-min Rain = 0
KSB1 160629Z 30013KT 21/M07 A2992 RMK A01 T02071067  RH  015%=      5-min Rain = 0
KSB1 160630Z 30010G15KT 21/M07 A2992 RMK A01 T02061069  RH  015%=      5-min Rain = 0
KSB1 160631Z 31012G17KT 21/M07 A2992 RMK A01 T02061069  RH  015%=      5-min Rain = 0
KSB1 160632Z 30012G17KT 21/M07 A2992 RMK A01 T02061070  RH  015%=      5-min Rain = 0
KSB1 160633Z 31010KT 21/M07 A2992 RMK A01 T02061071  RH  015%=      5-min Rain = 0
KSB1 160634Z 29010KT 21/M07 A2992 RMK A01 T02061071  RH  015%=      5-min Rain = 0
KSB1 160635Z 30010G15KT 21/M07 A2992 RMK A01 T02051072  RH  015%=      5-min Rain = 0
KSB1 160636Z 30014G22KT 21/M07 A2992 RMK A01 T02051072  RH  015%=      5-min Rain = 0
KSB1 160637Z 31013KT 21/M07 A2992 RMK A01 T02051073  RH  015%=      5-min Rain = 0
KSB1 160638Z 31012KT 21/M07 A2992 RMK A01 T02061074  RH  014%=      5-min Rain = 0
KSB1 160639Z 30014KT 21/M08 A2992 RMK A01 T02061075  RH  014%=      5-min Rain = 0
KSB1 160640Z 29010KT 21/M08 A2992 RMK A01 T02051076  RH  014%=      5-min Rain = 0
KSB1 160641Z 31015G22KT 21/M08 A2992 RMK A01 T02051076  RH  014%=      5-min Rain = 0
KSB1 160642Z 30011KT 21/M08 A2992 RMK A01 T02051076  RH  014%=      5-min Rain = 0
KSB1 160643Z 30008KT 21/M08 A2992 RMK A01 T02051076  RH  014%=      5-min Rain = 0
KSB1 160644Z 31008KT 20/M08 A2992 RMK A01 T02041077  RH  014%=      5-min Rain = 0
KSB1 160645Z 31014G19KT 20/M08 A2992 RMK A01 T02041076  RH  014%=      5-min Rain = 0
KSB1 160646Z 30011G16KT 20/M08 A2993 RMK A01 T02041077  RH  014%=      5-min Rain = 0
KSB1 160647Z 30012KT 21/M08 A2992 RMK A01 T02051077  RH  014%=      5-min Rain = 0
KSB1 160648Z 30014KT 21/M08 A2993 RMK A01 T02051078  RH  014%=      5-min Rain = 0
KSB1 160649Z 31010KT 21/M08 A2993 RMK A01 T02051078  RH  014%=      5-min Rain = 0
KSB1 160650Z 31011KT 21/M08 A2993 RMK A01 T02051078  RH  014%=      5-min Rain = 0
KSB1 160651Z 31014KT 20/M08 A2992 RMK A01 T02041079  RH  014%=      5-min Rain = 0
KSB1 160652Z 30014G19KT 20/M08 A2992 RMK A01 T02041080  RH  014%=      5-min Rain = 0
KSB1 160653Z 31012G17KT 20/M08 A2992 RMK A01 T02041080  RH  014%=      5-min Rain = 0
KSB1 160654Z 31012KT 21/M08 A2992 RMK A01 T02051080  RH  014%=      5-min Rain = 0
KSB1 160655Z 30010KT 20/M08 A2992 RMK A01 T02041081  RH  014%=      5-min Rain = 0
KSB1 160656Z 31011G16KT 20/M08 A2992 RMK A01 T02041082  RH  014%=      5-min Rain = 0
KSB1 160657Z 31010KT 20/M08 A2992 RMK A01 T02031082  RH  014%=      5-min Rain = 0
KSB1 160658Z 31011KT 20/M08 A2992 RMK A01 T02041082  RH  014%=      5-min Rain = 0
KSB1 160659Z 32011KT 20/M08 A2992 RMK A01 T02031082  RH  014%=      5-min Rain = 0
KSB1 160700Z 31012G17KT 20/M08 A2992 RMK A01 T02031082  RH  014%=      5-min Rain = 0
KSB1 160701Z 31011KT 20/M08 A2992 RMK A01 T02031082  RH  014%=      5-min Rain = 0
KSB1 160702Z 31015KT 20/M08 A2992 RMK A01 T02021082  RH  014%=      5-min Rain = 0
KSB1 160703Z 31016KT 20/M08 A2992 RMK A01 T02031082  RH  014%=      5-min Rain = 0
KSB1 160704Z 31013KT 20/M08 A2992 RMK A01 T02031083  RH  014%=      5-min Rain = 0
KSB1 160705Z 30012KT 20/M08 A2992 RMK A01 T02031083  RH  014%=      5-min Rain = 0
KSB1 160706Z 31012KT 20/M08 A2993 RMK A01 T02031083  RH  014%=      5-min Rain = 0
KSB1 160707Z 31011KT 20/M08 A2993 RMK A01 T02021084  RH  014%=      5-min Rain = 0
KSB1 160708Z 31011KT 20/M08 A2993 RMK A01 T02021083  RH  014%=      5-min Rain = 0
KSB1 160709Z 31012KT 20/M08 A2993 RMK A01 T02011083  RH  014%=      5-min Rain = 0
KSB1 160710Z 31010KT 20/M08 A2993 RMK A01 T02011083  RH  014%=      5-min Rain = 0
KSB1 160711Z 33010KT 20/M08 A2993 RMK A01 T02001084  RH  014%=      5-min Rain = 0
KSB1 160712Z 31010KT 20/M08 A2993 RMK A01 T01991083  RH  014%=      5-min Rain = 0
KSB1 160713Z 32013KT 20/M08 A2993 RMK A01 T02001083  RH  014%=      5-min Rain = 0
KSB1 160714Z 33012KT 20/M08 A2993 RMK A01 T01991084  RH  014%=      5-min Rain = 0
KSB1 160715Z 32010KT 20/M08 A2993 RMK A01 T02001084  RH  014%=      5-min Rain = 0
KSB1 160716Z 34006KT 20/M08 A2993 RMK A01 T02001084  RH  014%=      5-min Rain = 0
KSB1 160717Z 01004KT 20/M08 A2993 RMK A01 T01981083  RH  014%=      5-min Rain = 0
KSB1 160718Z 00006KT 20/M08 A2993 RMK A01 T01961082  RH  014%=      5-min Rain = 0
KSB1 160719Z 00006KT 19/M08 A2993 RMK A01 T01931081  RH  015%=      5-min Rain = 0
KSB1 160720Z 01006KT 19/M08 A2993 RMK A01 T01901081  RH  015%=      5-min Rain = 0
KSB1 160721Z 00006KT 19/M08 A2993 RMK A01 T01881081  RH  015%=      5-min Rain = 0
KSB1 160722Z 35006KT 19/M08 A2993 RMK A01 T01861081  RH  016%=      5-min Rain = 0
KSB1 160723Z 36005KT 19/M08 A2993 RMK A01 T01851081  RH  016%=      5-min Rain = 0
KSB1 160724Z 36005KT 18/M08 A2993 RMK A01 T01841081  RH  016%=      5-min Rain = 0
KSB1 160725Z 00006KT 18/M08 A2993 RMK A01 T01831081  RH  016%=      5-min Rain = 0
KSB1 160726Z 00007KT 18/M08 A2993 RMK A01 T01821081  RH  016%=      5-min Rain = 0
KSB1 160727Z 36006KT 18/M08 A2993 RMK A01 T01811081  RH  016%=      5-min Rain = 0
KSB1 160728Z 36006KT 18/M08 A2993 RMK A01 T01801081  RH  016%=      5-min Rain = 0
KSB1 160729Z 01007KT 18/M08 A2992 RMK A01 T01801081  RH  016%=      5-min Rain = 0
KSB1 160730Z 00007KT 18/M08 A2992 RMK A01 T01801081  RH  016%=      5-min Rain = 0
KSB1 160731Z 36008KT 18/M08 A2992 RMK A01 T01801081  RH  016%=      5-min Rain = 0
KSB1 160732Z 36007KT 18/M08 A2992 RMK A01 T01791081  RH  016%=      5-min Rain = 0
KSB1 160733Z 35007KT 18/M08 A2992 RMK A01 T01781081  RH  016%=      5-min Rain = 0
KSB1 160734Z 35007KT 18/M08 A2992 RMK A01 T01781081  RH  016%=      5-min Rain = 0
KSB1 160735Z 35006KT 18/M08 A2992 RMK A01 T01781082  RH  016%=      5-min Rain = 0
KSB1 160736Z 35006KT 18/M08 A2992 RMK A01 T01781081  RH  016%=      5-min Rain = 0
KSB1 160737Z 36006KT 18/M08 A2992 RMK A01 T01781082  RH  016%=      5-min Rain = 0
KSB1 160738Z 36006KT 18/M08 A2992 RMK A01 T01781082  RH  016%=      5-min Rain = 0
KSB1 160739Z 36007KT 18/M08 A2992 RMK A01 T01771082  RH  016%=      5-min Rain = 0
KSB1 160740Z 35006KT 18/M08 A2992 RMK A01 T01771082  RH  016%=      5-min Rain = 0
KSB1 160741Z 35006KT 18/M08 A2992 RMK A01 T01771082  RH  016%=      5-min Rain = 0
KSB1 160742Z 00006KT 18/M08 A2992 RMK A01 T01771082  RH  016%=      5-min Rain = 0
KSB1 160743Z 00007KT 18/M08 A2992 RMK A01 T01761082  RH  016%=      5-min Rain = 0
KSB1 160744Z 00007KT 18/M08 A2992 RMK A01 T01751082  RH  016%=      5-min Rain = 0
KSB1 160745Z 00007KT 18/M08 A2992 RMK A01 T01761082  RH  016%=      5-min Rain = 0
KSB1 160746Z 00006KT 18/M08 A2992 RMK A01 T01771083  RH  016%=      5-min Rain = 0
KSB1 160747Z 36006KT 18/M08 A2992 RMK A01 T01781082  RH  016%=      5-min Rain = 0
KSB1 160748Z 36006KT 18/M08 A2992 RMK A01 T01771083  RH  016%=      5-min Rain = 0
KSB1 160749Z 35007KT 18/M08 A2992 RMK A01 T01761083  RH  016%=      5-min Rain = 0
KSB1 160750Z 35006KT 18/M08 A2992 RMK A01 T01761083  RH  016%=      5-min Rain = 0
KSB1 160751Z 36006KT 18/M08 A2992 RMK A01 T01771083  RH  016%=      5-min Rain = 0
KSB1 160752Z 00006KT 18/M08 A2992 RMK A01 T01771083  RH  016%=      5-min Rain = 0
KSB1 160753Z 35006KT 18/M08 A2992 RMK A01 T01771083  RH  016%=      5-min Rain = 0
KSB1 160754Z 36006KT 18/M08 A2992 RMK A01 T01771083  RH  016%=      5-min Rain = 0
KSB1 160755Z 35005KT 18/M08 A2992 RMK A01 T01761084  RH  016%=      5-min Rain = 0
KSB1 160756Z 35005KT 18/M08 A2992 RMK A01 T01751084  RH  016%=      5-min Rain = 0
KSB1 160757Z 35006KT 17/M08 A2992 RMK A01 T01741084  RH  016%=      5-min Rain = 0
KSB1 160758Z 35005KT 17/M08 A2992 RMK A01 T01731084  RH  016%=      5-min Rain = 0
KSB1 160759Z 35005KT 17/M08 A2992 RMK A01 T01721084  RH  017%=      5-min Rain = 0
KSB1 160800Z 35006KT 17/M08 A2992 RMK A01 T01721084  RH  017%=      5-min Rain = 0
KSB1 160801Z 35006KT 17/M08 A2992 RMK A01 T01721084  RH  017%=      5-min Rain = 0
KSB1 160802Z 36005KT 17/M08 A2992 RMK A01 T01731084  RH  017%=      5-min Rain = 0
KSB1 160803Z 36004KT 17/M08 A2992 RMK A01 T01731084  RH  017%=      5-min Rain = 0
KSB1 160804Z 35005KT 17/M08 A2992 RMK A01 T01741083  RH  016%=      5-min Rain = 0
KSB1 160805Z 33005KT 17/M08 A2992 RMK A01 T01741084  RH  016%=      5-min Rain = 0
KSB1 160806Z 35004KT 18/M08 A2992 RMK A01 T01751084  RH  016%=      5-min Rain = 0
KSB1 160807Z 36004KT 18/M08 A2992 RMK A01 T01751084  RH  016%=      5-min Rain = 0
KSB1 160808Z 36005KT 18/M08 A2992 RMK A01 T01751084  RH  016%=      5-min Rain = 0
KSB1 160809Z 34004KT 17/M08 A2992 RMK A01 T01741084  RH  016%=      5-min Rain = 0
KSB1 160810Z 36004KT 17/M08 A2992 RMK A01 T01731084  RH  016%=      5-min Rain = 0
KSB1 160811Z 35004KT 17/M08 A2992 RMK A01 T01731084  RH  016%=      5-min Rain = 0
KSB1 160812Z 00004KT 17/M08 A2992 RMK A01 T01731084  RH  016%=      5-min Rain = 0
KSB1 160813Z 00005KT 17/M08 A2992 RMK A01 T01731084  RH  016%=      5-min Rain = 0
KSB1 160814Z 36005KT 17/M08 A2992 RMK A01 T01721084  RH  016%=      5-min Rain = 0
KSB1 160815Z 36005KT 17/M08 A2992 RMK A01 T01721084  RH  017%=      5-min Rain = 0
KSB1 160816Z 35005KT 17/M08 A2992 RMK A01 T01711084  RH  017%=      5-min Rain = 0
KSB1 160817Z 35007KT 17/M09 A2992 RMK A01 T01701085  RH  017%=      5-min Rain = 0
KSB1 160818Z 34007KT 17/M09 A2992 RMK A01 T01731085  RH  016%=      5-min Rain = 0
KSB1 160819Z 34004KT 18/M09 A2992 RMK A01 T01771086  RH  016%=      5-min Rain = 0
KSB1 160820Z 35005KT 18/M09 A2992 RMK A01 T01791085  RH  016%=      5-min Rain = 0
KSB1 160821Z 00006KT 18/M09 A2992 RMK A01 T01801085  RH  016%=      5-min Rain = 0
KSB1 160822Z 36006KT 18/M09 A2992 RMK A01 T01781085  RH  016%=      5-min Rain = 0
KSB1 160823Z 00006KT 18/M09 A2992 RMK A01 T01761085  RH  016%=      5-min Rain = 0
KSB1 160824Z 00005KT 17/M09 A2992 RMK A01 T01741085  RH  016%=      5-min Rain = 0
KSB1 160825Z 00005KT 17/M09 A2992 RMK A01 T01721086  RH  016%=      5-min Rain = 0
KSB1 160826Z 35005KT 17/M09 A2992 RMK A01 T01711085  RH  017%=      5-min Rain = 0
KSB1 160827Z 35005KT 17/M09 A2992 RMK A01 T01701085  RH  017%=      5-min Rain = 0
KSB1 160828Z 36005KT 17/M09 A2992 RMK A01 T01701085  RH  017%=      5-min Rain = 0
KSB1 160829Z 35005KT 17/M09 A2992 RMK A01 T01691085  RH  017%=      5-min Rain = 0
KSB1 160830Z 34005KT 17/M09 A2992 RMK A01 T01701085  RH  017%=      5-min Rain = 0
KSB1 160831Z 34005KT 17/M09 A2992 RMK A01 T01711085  RH  017%=      5-min Rain = 0
KSB1 160832Z 35004KT 17/M09 A2992 RMK A01 T01711086  RH  016%=      5-min Rain = 0
KSB1 160833Z 35005KT 17/M09 A2992 RMK A01 T01711086  RH  016%=      5-min Rain = 0
KSB1 160834Z 36006KT 17/M09 A2992 RMK A01 T01711086  RH  016%=      5-min Rain = 0
KSB1 160835Z 35006KT 17/M09 A2992 RMK A01 T01711086  RH  017%=      5-min Rain = 0
KSB1 160836Z 36006KT 17/M09 A2992 RMK A01 T01691086  RH  017%=      5-min Rain = 0
KSB1 160837Z 36006KT 17/M09 A2992 RMK A01 T01681086  RH  017%=      5-min Rain = 0
KSB1 160838Z 35006KT 17/M09 A2992 RMK A01 T01671086  RH  017%=      5-min Rain = 0
KSB1 160839Z 35006KT 17/M09 A2992 RMK A01 T01661086  RH  017%=      5-min Rain = 0
KSB1 160840Z 35005KT 17/M09 A2992 RMK A01 T01661086  RH  017%=      5-min Rain = 0
KSB1 160841Z 36006KT 17/M09 A2992 RMK A01 T01661086  RH  017%=      5-min Rain = 0
KSB1 160842Z 36006KT 17/M09 A2992 RMK A01 T01661086  RH  017%=      5-min Rain = 0
KSB1 160843Z 35007KT 17/M09 A2992 RMK A01 T01661086  RH  017%=      5-min Rain = 0
KSB1 160844Z 35006KT 17/M09 A2992 RMK A01 T01651086  RH  017%=      5-min Rain = 0
KSB1 160845Z 35006KT 16/M09 A2992 RMK A01 T01641086  RH  017%=      5-min Rain = 0
KSB1 160846Z 35005KT 16/M09 A2992 RMK A01 T01641086  RH  017%=      5-min Rain = 0
KSB1 160847Z 35006KT 16/M09 A2992 RMK A01 T01631086  RH  017%=      5-min Rain = 0
KSB1 160848Z 34006KT 16/M09 A2992 RMK A01 T01631086  RH  017%=      5-min Rain = 0
KSB1 160849Z 34005KT 16/M09 A2992 RMK A01 T01631086  RH  017%=      5-min Rain = 0
KSB1 160850Z 34005KT 17/M09 A2992 RMK A01 T01651086  RH  017%=      5-min Rain = 0
KSB1 160851Z 34005KT 17/M09 A2992 RMK A01 T01661086  RH  017%=      5-min Rain = 0
KSB1 160852Z 34005KT 17/M09 A2992 RMK A01 T01661086  RH  017%=      5-min Rain = 0
KSB1 160853Z 35005KT 17/M09 A2992 RMK A01 T01671086  RH  017%=      5-min Rain = 0
KSB1 160854Z 35005KT 17/M09 A2991 RMK A01 T01671086  RH  017%=      5-min Rain = 0
KSB1 160855Z 35006KT 17/M09 A2991 RMK A01 T01671086  RH  017%=      5-min Rain = 0
KSB1 160856Z 34006KT 17/M09 A2991 RMK A01 T01661087  RH  017%=      5-min Rain = 0
KSB1 160857Z 34006KT 17/M09 A2991 RMK A01 T01651087  RH  017%=      5-min Rain = 0
KSB1 160858Z 34006KT 16/M09 A2991 RMK A01 T01641087  RH  017%=      5-min Rain = 0
KSB1 160859Z 34007KT 16/M09 A2991 RMK A01 T01641087  RH  017%=      5-min Rain = 0
KSB1 160900Z 34006KT 16/M09 A2991 RMK A01 T01641086  RH  017%=      5-min Rain = 0
KSB1 160901Z 34006KT 16/M09 A2991 RMK A01 T01631087  RH  017%=      5-min Rain = 0
KSB1 160902Z 33006KT 16/M09 A2991 RMK A01 T01631087  RH  017%=      5-min Rain = 0
KSB1 160903Z 33007KT 16/M09 A2991 RMK A01 T01631087  RH  017%=      5-min Rain = 0
KSB1 160904Z 33007KT 16/M09 A2991 RMK A01 T01621087  RH  017%=      5-min Rain = 0
KSB1 160905Z 33007KT 16/M09 A2991 RMK A01 T01621087  RH  017%=      5-min Rain = 0
KSB1 160906Z 33007KT 16/M09 A2991 RMK A01 T01611087  RH  017%=      5-min Rain = 0
KSB1 160907Z 33007KT 16/M09 A2991 RMK A01 T01611088  RH  017%=      5-min Rain = 0
KSB1 160908Z 33008KT 16/M09 A2991 RMK A01 T01631088  RH  017%=      5-min Rain = 0
KSB1 160909Z 33008KT 16/M09 A2991 RMK A01 T01631088  RH  017%=      5-min Rain = 0
KSB1 160910Z 33008KT 16/M09 A2991 RMK A01 T01631088  RH  017%=      5-min Rain = 0
KSB1 160911Z 33008KT 16/M09 A2991 RMK A01 T01631089  RH  017%=      5-min Rain = 0
KSB1 160912Z 33008KT 16/M09 A2991 RMK A01 T01631089  RH  017%=      5-min Rain = 0
KSB1 160913Z 32008KT 16/M09 A2991 RMK A01 T01631088  RH  017%=      5-min Rain = 0
KSB1 160914Z 33008KT 16/M09 A2991 RMK A01 T01641089  RH  017%=      5-min Rain = 0
KSB1 160915Z 33008KT 16/M09 A2991 RMK A01 T01641089  RH  017%=      5-min Rain = 0
KSB1 160916Z 33009KT 16/M09 A2991 RMK A01 T01641089  RH  017%=      5-min Rain = 0
KSB1 160917Z 32008KT 16/M09 A2991 RMK A01 T01641089  RH  017%=      5-min Rain = 0
KSB1 160918Z 32008KT 16/M09 A2991 RMK A01 T01631089  RH  017%=      5-min Rain = 0
KSB1 160919Z 32009KT 16/M09 A2991 RMK A01 T01631089  RH  017%=      5-min Rain = 0
KSB1 160920Z 32008KT 16/M09 A2991 RMK A01 T01641089  RH  017%=      5-min Rain = 0
KSB1 160921Z 32009KT 16/M09 A2991 RMK A01 T01641089  RH  017%=      5-min Rain = 0
KSB1 160922Z 32009KT 17/M09 A2991 RMK A01 T01651089  RH  017%=      5-min Rain = 0
KSB1 160923Z 32008KT 17/M09 A2991 RMK A01 T01661089  RH  017%=      5-min Rain = 0
KSB1 160924Z 32008KT 17/M09 A2991 RMK A01 T01661089  RH  017%=      5-min Rain = 0
KSB1 160925Z 32008KT 17/M09 A2991 RMK A01 T01671089  RH  016%=      5-min Rain = 0
KSB1 160926Z 31007KT 17/M09 A2991 RMK A01 T01671089  RH  016%=      5-min Rain = 0
KSB1 160927Z 31008KT 17/M09 A2991 RMK A01 T01661090  RH  016%=      5-min Rain = 0
KSB1 160928Z 31008KT 17/M09 A2991 RMK A01 T01661089  RH  017%=      5-min Rain = 0
KSB1 160929Z 31009KT 17/M09 A2991 RMK A01 T01651089  RH  017%=      5-min Rain = 0
KSB1 160930Z 31009KT 17/M09 A2991 RMK A01 T01651089  RH  017%=      5-min Rain = 0
KSB1 160931Z 32009KT 17/M09 A2991 RMK A01 T01661089  RH  017%=      5-min Rain = 0
KSB1 160932Z 32009KT 17/M09 A2991 RMK A01 T01661090  RH  016%=      5-min Rain = 0
KSB1 160933Z 32009KT 17/M09 A2991 RMK A01 T01671091  RH  016%=      5-min Rain = 0
KSB1 160934Z 32009KT 17/M09 A2991 RMK A01 T01671090  RH  016%=      5-min Rain = 0
KSB1 160935Z 31008KT 17/M09 A2991 RMK A01 T01671091  RH  016%=      5-min Rain = 0
KSB1 160936Z 31009KT 17/M09 A2991 RMK A01 T01671091  RH  016%=      5-min Rain = 0
KSB1 160937Z 31008KT 17/M09 A2991 RMK A01 T01661091  RH  016%=      5-min Rain = 0
KSB1 160938Z 31008KT 17/M09 A2991 RMK A01 T01661090  RH  016%=      5-min Rain = 0
KSB1 160939Z 31008KT 17/M09 A2991 RMK A01 T01661091  RH  016%=      5-min Rain = 0
KSB1 160940Z 31009KT 17/M09 A2991 RMK A01 T01651091  RH  016%=      5-min Rain = 0
KSB1 160941Z 31008KT 17/M09 A2991 RMK A01 T01651092  RH  016%=      5-min Rain = 0
KSB1 160942Z 31008KT 17/M09 A2991 RMK A01 T01651092  RH  016%=      5-min Rain = 0
KSB1 160943Z 31009KT 17/M09 A2991 RMK A01 T01651093  RH  016%=      5-min Rain = 0
KSB1 160944Z 31010KT 17/M09 A2991 RMK A01 T01661093  RH  016%=      5-min Rain = 0
KSB1 160945Z 31010KT 17/M09 A2991 RMK A01 T01671094  RH  016%=      5-min Rain = 0
KSB1 160946Z 31010KT 17/M10 A2991 RMK A01 T01691095  RH  016%=      5-min Rain = 0
KSB1 160947Z 31011KT 17/M10 A2991 RMK A01 T01691095  RH  015%=      5-min Rain = 0
KSB1 160948Z 31010KT 17/M10 A2991 RMK A01 T01701096  RH  015%=      5-min Rain = 0
KSB1 160949Z 31010KT 17/M10 A2991 RMK A01 T01701097  RH  015%=      5-min Rain = 0
KSB1 160950Z 31009KT 17/M10 A2991 RMK A01 T01701097  RH  015%=      5-min Rain = 0
KSB1 160951Z 31011KT 17/M10 A2991 RMK A01 T01711097  RH  015%=      5-min Rain = 0
KSB1 160952Z 31010KT 17/M10 A2991 RMK A01 T01711099  RH  015%=      5-min Rain = 0
KSB1 160953Z 31009KT 17/M10 A2991 RMK A01 T01711099  RH  015%=      5-min Rain = 0
KSB1 160954Z 31010KT 17/M10 A2991 RMK A01 T01711099  RH  015%=      5-min Rain = 0
KSB1 160955Z 31011KT 17/M10 A2991 RMK A01 T01701099  RH  015%=      5-min Rain = 0
KSB1 160956Z 31011KT 17/M10 A2991 RMK A01 T01701100  RH  015%=      5-min Rain = 0
KSB1 160957Z 30012KT 17/M10 A2991 RMK A01 T01711100  RH  015%=      5-min Rain = 0
KSB1 160958Z 31011KT 17/M10 A2991 RMK A01 T01721101  RH  015%=      5-min Rain = 0
KSB1 160959Z 31011KT 17/M10 A2991 RMK A01 T01721101  RH  015%=      5-min Rain = 0
KSB1 161000Z 31011KT 17/M10 A2991 RMK A01 T01721102  RH  014%=      5-min Rain = 0
KSB1 161001Z 31011KT 17/M10 A2991 RMK A01 T01721102  RH  014%=      5-min Rain = 0
KSB1 161002Z 31011KT 17/M10 A2991 RMK A01 T01721103  RH  014%=      5-min Rain = 0
KSB1 161003Z 31012KT 17/M10 A2992 RMK A01 T01721104  RH  014%=      5-min Rain = 0
KSB1 161004Z 31011KT 17/M10 A2992 RMK A01 T01731103  RH  014%=      5-min Rain = 0
KSB1 161005Z 31012KT 17/M10 A2991 RMK A01 T01731103  RH  014%=      5-min Rain = 0
KSB1 161006Z 31011KT 17/M10 A2991 RMK A01 T01731103  RH  014%=      5-min Rain = 0
KSB1 161007Z 31010KT 17/M10 A2991 RMK A01 T01731103  RH  014%=      5-min Rain = 0
KSB1 161008Z 31010KT 17/M10 A2991 RMK A01 T01721103  RH  014%=      5-min Rain = 0
KSB1 161009Z 31010KT 17/M10 A2991 RMK A01 T01721103  RH  014%=      5-min Rain = 0
KSB1 161010Z 32010KT 17/M10 A2991 RMK A01 T01711103  RH  014%=      5-min Rain = 0
KSB1 161011Z 32009KT 17/M10 A2991 RMK A01 T01711103  RH  014%=      5-min Rain = 0
KSB1 161012Z 32009KT 17/M10 A2991 RMK A01 T01701104  RH  014%=      5-min Rain = 0
KSB1 161013Z 32009KT 17/M10 A2991 RMK A01 T01691103  RH  015%=      5-min Rain = 0
KSB1 161014Z 32008KT 17/M10 A2991 RMK A01 T01691103  RH  015%=      5-min Rain = 0
KSB1 161015Z 32009KT 17/M10 A2991 RMK A01 T01681103  RH  015%=      5-min Rain = 0
KSB1 161016Z 32009KT 17/M10 A2991 RMK A01 T01681103  RH  015%=      5-min Rain = 0
KSB1 161017Z 32009KT 17/M10 A2991 RMK A01 T01681103  RH  015%=      5-min Rain = 0
KSB1 161018Z 32010KT 17/M10 A2991 RMK A01 T01671103  RH  015%=      5-min Rain = 0
KSB1 161019Z 32008KT 17/M10 A2991 RMK A01 T01671104  RH  015%=      5-min Rain = 0
KSB1 161020Z 32009KT 17/M10 A2991 RMK A01 T01681103  RH  015%=      5-min Rain = 0
KSB1 161021Z 32009KT 17/M10 A2991 RMK A01 T01671103  RH  015%=      5-min Rain = 0
KSB1 161022Z 33009KT 17/M10 A2991 RMK A01 T01661103  RH  015%=      5-min Rain = 0
KSB1 161023Z 33009KT 17/M10 A2991 RMK A01 T01651103  RH  015%=      5-min Rain = 0
KSB1 161024Z 33009KT 17/M10 A2991 RMK A01 T01661102  RH  015%=      5-min Rain = 0
KSB1 161025Z 32010KT 17/M10 A2991 RMK A01 T01651102  RH  015%=      5-min Rain = 0
KSB1 161026Z 32009KT 17/M10 A2991 RMK A01 T01651102  RH  015%=      5-min Rain = 0
KSB1 161027Z 32009KT 17/M10 A2991 RMK A01 T01651102  RH  015%=      5-min Rain = 0
KSB1 161028Z 32009KT 17/M10 A2991 RMK A01 T01651103  RH  015%=      5-min Rain = 0
KSB1 161029Z 32009KT 17/M10 A2991 RMK A01 T01651104  RH  015%=      5-min Rain = 0
KSB1 161030Z 32008KT 17/M10 A2991 RMK A01 T01651104  RH  015%=      5-min Rain = 0
KSB1 161031Z 32009KT 17/M10 A2991 RMK A01 T01651104  RH  015%=      5-min Rain = 0
KSB1 161032Z 32008KT 17/M11 A2991 RMK A01 T01651105  RH  015%=      5-min Rain = 0
KSB1 161033Z 32009KT 17/M11 A2991 RMK A01 T01661105  RH  015%=      5-min Rain = 0
KSB1 161034Z 31009KT 17/M11 A2991 RMK A01 T01661105  RH  015%=      5-min Rain = 0
KSB1 161035Z 31009KT 17/M11 A2991 RMK A01 T01651106  RH  015%=      5-min Rain = 0
KSB1 161036Z 31009KT 17/M11 A2991 RMK A01 T01661106  RH  015%=      5-min Rain = 0
KSB1 161037Z 31009KT 17/M11 A2991 RMK A01 T01651107  RH  014%=      5-min Rain = 0
KSB1 161038Z 31009KT 17/M11 A2991 RMK A01 T01651107  RH  015%=      5-min Rain = 0
KSB1 161039Z 31009KT 17/M11 A2991 RMK A01 T01651107  RH  014%=      5-min Rain = 0
KSB1 161040Z 31009KT 16/M11 A2991 RMK A01 T01641108  RH  015%=      5-min Rain = 0
KSB1 161041Z 31009KT 16/M11 A2991 RMK A01 T01641107  RH  015%=      5-min Rain = 0
KSB1 161042Z 31009KT 16/M11 A2991 RMK A01 T01631108  RH  015%=      5-min Rain = 0
KSB1 161043Z 31009KT 16/M11 A2991 RMK A01 T01631107  RH  015%=      5-min Rain = 0
KSB1 161044Z 31009KT 16/M11 A2991 RMK A01 T01641107  RH  015%=      5-min Rain = 0
KSB1 161045Z 31009KT 16/M11 A2991 RMK A01 T01631107  RH  015%=      5-min Rain = 0
KSB1 161046Z 31009KT 16/M11 A2991 RMK A01 T01631107  RH  015%=      5-min Rain = 0
KSB1 161047Z 31009KT 16/M11 A2991 RMK A01 T01631108  RH  015%=      5-min Rain = 0
KSB1 161048Z 31009KT 16/M11 A2991 RMK A01 T01621108  RH  015%=      5-min Rain = 0
KSB1 161049Z 31009KT 16/M11 A2991 RMK A01 T01621108  RH  015%=      5-min Rain = 0
KSB1 161050Z 31009KT 16/M11 A2991 RMK A01 T01631108  RH  015%=      5-min Rain = 0
KSB1 161051Z 31009KT 16/M11 A2991 RMK A01 T01631108  RH  014%=      5-min Rain = 0
KSB1 161052Z 31009KT 16/M11 A2991 RMK A01 T01641108  RH  014%=      5-min Rain = 0
KSB1 161053Z 31009KT 16/M11 A2991 RMK A01 T01641108  RH  014%=      5-min Rain = 0
KSB1 161054Z 30009KT 16/M11 A2991 RMK A01 T01641108  RH  014%=      5-min Rain = 0
KSB1 161055Z 30010KT 17/M11 A2991 RMK A01 T01651108  RH  014%=      5-min Rain = 0
KSB1 161056Z 30009KT 17/M11 A2991 RMK A01 T01651108  RH  014%=      5-min Rain = 0
KSB1 161057Z 30010KT 17/M11 A2991 RMK A01 T01661108  RH  014%=      5-min Rain = 0
KSB1 161058Z 30009KT 17/M11 A2991 RMK A01 T01651108  RH  014%=      5-min Rain = 0
KSB1 161059Z 30009KT 17/M11 A2991 RMK A01 T01651108  RH  014%=      5-min Rain = 0
KSB1 161100Z 30010KT 17/M11 A2991 RMK A01 T01651108  RH  014%=      5-min Rain = 0
KSB1 161101Z 30009KT 17/M11 A2991 RMK A01 T01651108  RH  014%=      5-min Rain = 0
KSB1 161102Z 30010KT 17/M11 A2991 RMK A01 T01651107  RH  014%=      5-min Rain = 0
KSB1 161103Z 30010KT 17/M11 A2991 RMK A01 T01651107  RH  014%=      5-min Rain = 0
KSB1 161104Z 30010KT 17/M11 A2991 RMK A01 T01661108  RH  014%=      5-min Rain = 0
KSB1 161105Z 30010KT 17/M11 A2991 RMK A01 T01661108  RH  014%=      5-min Rain = 0
KSB1 161106Z 30010KT 17/M11 A2991 RMK A01 T01661108  RH  014%=      5-min Rain = 0
KSB1 161107Z 30009KT 17/M11 A2991 RMK A01 T01661108  RH  014%=      5-min Rain = 0
KSB1 161108Z 30010KT 17/M11 A2991 RMK A01 T01661108  RH  014%=      5-min Rain = 0
KSB1 161109Z 30010KT 17/M11 A2991 RMK A01 T01661108  RH  014%=      5-min Rain = 0
KSB1 161110Z 30010KT 17/M11 A2991 RMK A01 T01651109  RH  014%=      5-min Rain = 0
KSB1 161111Z 30010KT 17/M11 A2991 RMK A01 T01661109  RH  014%=      5-min Rain = 0
KSB1 161112Z 30010KT 17/M11 A2991 RMK A01 T01661109  RH  014%=      5-min Rain = 0
KSB1 161113Z 30010KT 17/M11 A2991 RMK A01 T01661109  RH  014%=      5-min Rain = 0
KSB1 161114Z 30011KT 17/M11 A2991 RMK A01 T01661109  RH  014%=      5-min Rain = 0
KSB1 161115Z 30011KT 17/M11 A2991 RMK A01 T01661109  RH  014%=      5-min Rain = 0
KSB1 161116Z 30010KT 17/M11 A2991 RMK A01 T01661109  RH  014%=      5-min Rain = 0
KSB1 161117Z 30010KT 17/M11 A2991 RMK A01 T01661109  RH  014%=      5-min Rain = 0
KSB1 161118Z 30010KT 17/M11 A2991 RMK A01 T01661109  RH  014%=      5-min Rain = 0
KSB1 161119Z 30010KT 17/M11 A2991 RMK A01 T01661109  RH  014%=      5-min Rain = 0
KSB1 161120Z 30010KT 17/M11 A2991 RMK A01 T01661109  RH  014%=      5-min Rain = 0
KSB1 161121Z 31009KT 17/M11 A2991 RMK A01 T01661110  RH  014%=      5-min Rain = 0
KSB1 161122Z 31009KT 17/M11 A2991 RMK A01 T01661110  RH  014%=      5-min Rain = 0
KSB1 161123Z 31009KT 17/M11 A2991 RMK A01 T01651109  RH  014%=      5-min Rain = 0
KSB1 161124Z 31009KT 17/M11 A2991 RMK A01 T01651109  RH  014%=      5-min Rain = 0
KSB1 161125Z 30008KT 16/M11 A2991 RMK A01 T01641109  RH  014%=      5-min Rain = 0
KSB1 161126Z 30008KT 16/M11 A2991 RMK A01 T01641110  RH  014%=      5-min Rain = 0
KSB1 161127Z 31009KT 16/M11 A2991 RMK A01 T01631110  RH  014%=      5-min Rain = 0
KSB1 161128Z 31009KT 16/M11 A2991 RMK A01 T01641110  RH  014%=      5-min Rain = 0
KSB1 161129Z 30008KT 16/M11 A2991 RMK A01 T01631110  RH  014%=      5-min Rain = 0
KSB1 161130Z 30009KT 16/M11 A2991 RMK A01 T01641110  RH  014%=      5-min Rain = 0
KSB1 161131Z 31009KT 16/M11 A2991 RMK A01 T01641110  RH  014%=      5-min Rain = 0
KSB1 161132Z 30009KT 16/M11 A2991 RMK A01 T01641110  RH  014%=      5-min Rain = 0
KSB1 161133Z 30009KT 16/M11 A2991 RMK A01 T01631110  RH  014%=      5-min Rain = 0
KSB1 161134Z 30010KT 16/M11 A2991 RMK A01 T01631110  RH  014%=      5-min Rain = 0
KSB1 161135Z 31010KT 16/M11 A2991 RMK A01 T01641110  RH  014%=      5-min Rain = 0
KSB1 161136Z 31009KT 16/M11 A2991 RMK A01 T01641110  RH  014%=      5-min Rain = 0
KSB1 161137Z 31009KT 16/M11 A2991 RMK A01 T01641110  RH  014%=      5-min Rain = 0
KSB1 161138Z 31009KT 16/M11 A2991 RMK A01 T01641110  RH  014%=      5-min Rain = 0
KSB1 161139Z 31009KT 16/M11 A2991 RMK A01 T01631110  RH  014%=      5-min Rain = 0
KSB1 161140Z 31009KT 16/M11 A2991 RMK A01 T01631110  RH  014%=      5-min Rain = 0
KSB1 161141Z 31008KT 16/M11 A2991 RMK A01 T01631110  RH  014%=      5-min Rain = 0
KSB1 161142Z 31008KT 16/M11 A2991 RMK A01 T01631110  RH  014%=      5-min Rain = 0
KSB1 161143Z 31009KT 16/M11 A2991 RMK A01 T01631110  RH  014%=      5-min Rain = 0
KSB1 161144Z 31009KT 16/M11 A2991 RMK A01 T01631110  RH  014%=      5-min Rain = 0
KSB1 161145Z 31009KT 16/M11 A2991 RMK A01 T01621110  RH  014%=      5-min Rain = 0
KSB1 161146Z 31008KT 16/M11 A2991 RMK A01 T01621110  RH  014%=      5-min Rain = 0
KSB1 161147Z 31008KT 16/M11 A2991 RMK A01 T01621110  RH  014%=      5-min Rain = 0
KSB1 161148Z 31008KT 16/M11 A2991 RMK A01 T01621110  RH  014%=      5-min Rain = 0
KSB1 161149Z 31008KT 16/M11 A2991 RMK A01 T01621109  RH  014%=      5-min Rain = 0
KSB1 161150Z 31008KT 16/M11 A2991 RMK A01 T01621110  RH  014%=      5-min Rain = 0
KSB1 161151Z 31008KT 16/M11 A2991 RMK A01 T01611110  RH  015%=      5-min Rain = 0
KSB1 161152Z 31008KT 16/M11 A2991 RMK A01 T01611109  RH  015%=      5-min Rain = 0
KSB1 161153Z 31008KT 16/M11 A2991 RMK A01 T01611109  RH  015%=      5-min Rain = 0
KSB1 161154Z 31009KT 16/M11 A2991 RMK A01 T01611109  RH  015%=      5-min Rain = 0
KSB1 161155Z 31008KT 16/M11 A2991 RMK A01 T01611109  RH  015%=      5-min Rain = 0
KSB1 161156Z 31007KT 16/M11 A2991 RMK A01 T01611109  RH  015%=      5-min Rain = 0
KSB1 161157Z 31007KT 16/M11 A2991 RMK A01 T01611109  RH  015%=      5-min Rain = 0
KSB1 161158Z 31007KT 16/M11 A2991 RMK A01 T01611109  RH  015%=      5-min Rain = 0
KSB1 161159Z 31007KT 16/M11 A2991 RMK A01 T01601109  RH  015%=      5-min Rain = 0
KSB1 161200Z 31008KT 16/M11 A2991 RMK A01 T01601109  RH  015%=      5-min Rain = 0
KSB1 161201Z 31008KT 16/M11 A2992 RMK A01 T01601109  RH  015%=      5-min Rain = 0
KSB1 161202Z 31008KT 16/M11 A2992 RMK A01 T01591109  RH  015%=      5-min Rain = 0
KSB1 161203Z 31008KT 16/M11 A2992 RMK A01 T01601108  RH  015%=      5-min Rain = 0
KSB1 161204Z 30008KT 16/M11 A2992 RMK A01 T01601108  RH  015%=      5-min Rain = 0
KSB1 161205Z 31009KT 16/M11 A2992 RMK A01 T01601108  RH  015%=      5-min Rain = 0
KSB1 161206Z 30008KT 16/M11 A2992 RMK A01 T01601109  RH  015%=      5-min Rain = 0
KSB1 161207Z 30008KT 16/M11 A2992 RMK A01 T01601109  RH  015%=      5-min Rain = 0
KSB1 161208Z 30009KT 16/M11 A2992 RMK A01 T01601108  RH  015%=      5-min Rain = 0
KSB1 161209Z 30008KT 16/M11 A2992 RMK A01 T01611108  RH  015%=      5-min Rain = 0
KSB1 161210Z 30008KT 16/M11 A2992 RMK A01 T01611108  RH  015%=      5-min Rain = 0
KSB1 161211Z 30008KT 16/M11 A2992 RMK A01 T01621108  RH  015%=      5-min Rain = 0
KSB1 161212Z 30008KT 16/M11 A2992 RMK A01 T01611108  RH  015%=      5-min Rain = 0
KSB1 161213Z 30008KT 16/M11 A2992 RMK A01 T01621107  RH  015%=      5-min Rain = 0
KSB1 161214Z 30009KT 16/M11 A2992 RMK A01 T01611108  RH  015%=      5-min Rain = 0
KSB1 161215Z 30009KT 16/M11 A2992 RMK A01 T01611108  RH  015%=      5-min Rain = 0
KSB1 161216Z 30009KT 16/M11 A2992 RMK A01 T01621107  RH  015%=      5-min Rain = 0
KSB1 161217Z 30009KT 16/M11 A2992 RMK A01 T01621108  RH  015%=      5-min Rain = 0
KSB1 161218Z 30009KT 16/M11 A2992 RMK A01 T01621107  RH  015%=      5-min Rain = 0
KSB1 161219Z 30009KT 16/M11 A2993 RMK A01 T01621108  RH  015%=      5-min Rain = 0
KSB1 161220Z 30009KT 16/M11 A2993 RMK A01 T01621108  RH  015%=      5-min Rain = 0
KSB1 161221Z 30008KT 16/M11 A2993 RMK A01 T01621107  RH  015%=      5-min Rain = 0
KSB1 161222Z 30009KT 16/M11 A2993 RMK A01 T01631106  RH  015%=      5-min Rain = 0
KSB1 161223Z 30008KT 16/M11 A2993 RMK A01 T01621107  RH  015%=      5-min Rain = 0
KSB1 161224Z 31008KT 16/M11 A2993 RMK A01 T01621107  RH  015%=      5-min Rain = 0
KSB1 161225Z 30007KT 16/M11 A2993 RMK A01 T01621107  RH  015%=      5-min Rain = 0
KSB1 161226Z 30007KT 16/M11 A2993 RMK A01 T01611107  RH  015%=      5-min Rain = 0
KSB1 161227Z 30007KT 16/M11 A2993 RMK A01 T01611107  RH  015%=      5-min Rain = 0
KSB1 161228Z 31007KT 16/M11 A2993 RMK A01 T01601107  RH  015%=      5-min Rain = 0
KSB1 161229Z 31007KT 16/M11 A2993 RMK A01 T01601107  RH  015%=      5-min Rain = 0
KSB1 161230Z 31007KT 16/M11 A2993 RMK A01 T01601107  RH  015%=      5-min Rain = 0
KSB1 161231Z 31007KT 16/M11 A2993 RMK A01 T01601107  RH  015%=      5-min Rain = 0
KSB1 161232Z 31006KT 16/M11 A2993 RMK A01 T01591107  RH  015%=      5-min Rain = 0
KSB1 161233Z 32005KT 16/M11 A2993 RMK A01 T01561108  RH  015%=      5-min Rain = 0
KSB1 161234Z 32006KT 15/M11 A2993 RMK A01 T01491110  RH  016%=      5-min Rain = 0
KSB1 161235Z 32007KT 15/M11 A2993 RMK A01 T01451110  RH  016%=      5-min Rain = 0
KSB1 161236Z 32006KT 14/M11 A2993 RMK A01 T01441109  RH  016%=      5-min Rain = 0
KSB1 161237Z 32006KT 15/M11 A2993 RMK A01 T01451108  RH  016%=      5-min Rain = 0
KSB1 161238Z 32007KT 15/M11 A2993 RMK A01 T01451108  RH  016%=      5-min Rain = 0
KSB1 161239Z 32007KT 15/M11 A2993 RMK A01 T01461108  RH  016%=      5-min Rain = 0
KSB1 161240Z 32007KT 15/M11 A2993 RMK A01 T01461108  RH  016%=      5-min Rain = 0
KSB1 161241Z 32007KT 15/M11 A2994 RMK A01 T01471107  RH  016%=      5-min Rain = 0
KSB1 161242Z 32007KT 15/M11 A2994 RMK A01 T01461107  RH  016%=      5-min Rain = 0
KSB1 161243Z 32007KT 15/M11 A2994 RMK A01 T01461107  RH  016%=      5-min Rain = 0
KSB1 161244Z 31007KT 15/M11 A2994 RMK A01 T01471107  RH  016%=      5-min Rain = 0
KSB1 161245Z 32007KT 15/M11 A2994 RMK A01 T01471107  RH  016%=      5-min Rain = 0
KSB1 161246Z 32007KT 15/M11 A2994 RMK A01 T01481107  RH  016%=      5-min Rain = 0
KSB1 161247Z 32006KT 15/M11 A2994 RMK A01 T01491107  RH  016%=      5-min Rain = 0
KSB1 161248Z 32006KT 15/M11 A2994 RMK A01 T01491107  RH  016%=      5-min Rain = 0
KSB1 161249Z 32006KT 15/M11 A2994 RMK A01 T01481107  RH  016%=      5-min Rain = 0
KSB1 161250Z 32007KT 15/M11 A2994 RMK A01 T01461107  RH  016%=      5-min Rain = 0
KSB1 161251Z 31006KT 15/M11 A2994 RMK A01 T01451107  RH  016%=      5-min Rain = 0
KSB1 161252Z 31007KT 15/M11 A2994 RMK A01 T01461107  RH  016%=      5-min Rain = 0
KSB1 161253Z 31007KT 15/M11 A2994 RMK A01 T01471106  RH  016%=      5-min Rain = 0
KSB1 161254Z 32007KT 15/M11 A2994 RMK A01 T01491106  RH  016%=      5-min Rain = 0
KSB1 161255Z 32006KT 15/M11 A2994 RMK A01 T01501106  RH  016%=      5-min Rain = 0
KSB1 161256Z 32006KT 15/M11 A2994 RMK A01 T01501106  RH  016%=      5-min Rain = 0
KSB1 161257Z 32006KT 15/M11 A2994 RMK A01 T01481107  RH  016%=      5-min Rain = 0
KSB1 161258Z 31006KT 15/M11 A2994 RMK A01 T01461107  RH  016%=      5-min Rain = 0
KSB1 161259Z 31006KT 15/M11 A2994 RMK A01 T01461107  RH  016%=      5-min Rain = 0
KSB1 161300Z 31006KT 15/M11 A2994 RMK A01 T01461106  RH  016%=      5-min Rain = 0
KSB1 161301Z 31006KT 15/M11 A2994 RMK A01 T01471106  RH  016%=      5-min Rain = 0
KSB1 161302Z 33006KT 15/M11 A2994 RMK A01 T01471106  RH  016%=      5-min Rain = 0
KSB1 161303Z 34007KT 15/M11 A2995 RMK A01 T01461108  RH  016%=      5-min Rain = 0
KSB1 161304Z 32006KT 14/M11 A2995 RMK A01 T01421111  RH  016%=      5-min Rain = 0
KSB1 161305Z 31007KT 14/M11 A2995 RMK A01 T01401110  RH  017%=      5-min Rain = 0
KSB1 161306Z 32007KT 14/M11 A2995 RMK A01 T01401109  RH  017%=      5-min Rain = 0
KSB1 161307Z 31007KT 14/M11 A2995 RMK A01 T01441108  RH  016%=      5-min Rain = 0
KSB1 161308Z 31007KT 15/M11 A2995 RMK A01 T01461106  RH  016%=      5-min Rain = 0
KSB1 161309Z 31006KT 15/M11 A2995 RMK A01 T01471106  RH  016%=      5-min Rain = 0
KSB1 161310Z 30006KT 15/M11 A2995 RMK A01 T01481106  RH  016%=      5-min Rain = 0
KSB1 161311Z 32004KT 15/M11 A2995 RMK A01 T01491106  RH  016%=      5-min Rain = 0
KSB1 161312Z 34006KT 15/M11 A2995 RMK A01 T01481107  RH  016%=      5-min Rain = 0
KSB1 161313Z 32006KT 15/M11 A2995 RMK A01 T01451107  RH  017%=      5-min Rain = 0
KSB1 161314Z 32006KT 14/M11 A2995 RMK A01 T01421107  RH  017%=      5-min Rain = 0
KSB1 161315Z 32006KT 14/M11 A2995 RMK A01 T01431106  RH  017%=      5-min Rain = 0
KSB1 161316Z 30005KT 15/M11 A2995 RMK A01 T01461105  RH  017%=      5-min Rain = 0
KSB1 161317Z 29004KT 15/M10 A2995 RMK A01 T01491104  RH  016%=      5-min Rain = 0
KSB1 161318Z 29004KT 15/M11 A2995 RMK A01 T01491105  RH  016%=      5-min Rain = 0
KSB1 161319Z 30005KT 15/M11 A2995 RMK A01 T01491105  RH  016%=      5-min Rain = 0
KSB1 161320Z 30005KT 15/M10 A2995 RMK A01 T01501104  RH  016%=      5-min Rain = 0
KSB1 161321Z 31003KT 15/M10 A2995 RMK A01 T01511104  RH  016%=      5-min Rain = 0
KSB1 161322Z 32004KT 15/M11 A2995 RMK A01 T01511105  RH  016%=      5-min Rain = 0
KSB1 161323Z 30004KT 15/M11 A2995 RMK A01 T01481105  RH  016%=      5-min Rain = 0
KSB1 161324Z 30004KT 15/M11 A2995 RMK A01 T01471105  RH  017%=      5-min Rain = 0
KSB1 161325Z 29005KT 15/M11 A2995 RMK A01 T01481105  RH  016%=      5-min Rain = 0
KSB1 161326Z 30006KT 15/M11 A2995 RMK A01 T01481105  RH  016%=      5-min Rain = 0
KSB1 161327Z 30005KT 15/M11 A2995 RMK A01 T01481105  RH  016%=      5-min Rain = 0
KSB1 161328Z 30005KT 15/M11 A2995 RMK A01 T01481105  RH  016%=      5-min Rain = 0
KSB1 161329Z 31004KT 15/M11 A2996 RMK A01 T01481105  RH  016%=      5-min Rain = 0
KSB1 161330Z 30005KT 15/M10 A2996 RMK A01 T01501104  RH  016%=      5-min Rain = 0
KSB1 161331Z 30004KT 15/M10 A2996 RMK A01 T01531104  RH  016%=      5-min Rain = 0
KSB1 161332Z 30005KT 15/M10 A2996 RMK A01 T01541104  RH  016%=      5-min Rain = 0
KSB1 161333Z 29005KT 15/M11 A2996 RMK A01 T01531105  RH  016%=      5-min Rain = 0
KSB1 161334Z 29005KT 15/M11 A2996 RMK A01 T01511105  RH  016%=      5-min Rain = 0
KSB1 161335Z 30005KT 15/M11 A2996 RMK A01 T01511105  RH  016%=      5-min Rain = 0
KSB1 161336Z 29005KT 15/M10 A2996 RMK A01 T01511104  RH  016%=      5-min Rain = 0
KSB1 161337Z 29004KT 15/M11 A2996 RMK A01 T01511105  RH  016%=      5-min Rain = 0
KSB1 161338Z 29005KT 15/M10 A2996 RMK A01 T01511104  RH  016%=      5-min Rain = 0
KSB1 161339Z 29005KT 15/M11 A2996 RMK A01 T01511105  RH  016%=      5-min Rain = 0
KSB1 161340Z 29006KT 15/M10 A2996 RMK A01 T01521104  RH  016%=      5-min Rain = 0
KSB1 161341Z 29006KT 15/M10 A2996 RMK A01 T01531103  RH  016%=      5-min Rain = 0
KSB1 161342Z 29005KT 16/M10 A2996 RMK A01 T01551102  RH  016%=      5-min Rain = 0
KSB1 161343Z 30005KT 16/M10 A2996 RMK A01 T01571102  RH  016%=      5-min Rain = 0
KSB1 161344Z 30005KT 16/M10 A2996 RMK A01 T01591102  RH  016%=      5-min Rain = 0
KSB1 161345Z 33003KT 16/M10 A2996 RMK A01 T01611102  RH  015%=      5-min Rain = 0
KSB1 161346Z 34005KT 16/M10 A2996 RMK A01 T01601102  RH  016%=      5-min Rain = 0
KSB1 161347Z 33005KT 16/M10 A2996 RMK A01 T01571104  RH  016%=      5-min Rain = 0
KSB1 161348Z 33006KT 16/M11 A2996 RMK A01 T01551105  RH  016%=      5-min Rain = 0
KSB1 161349Z 32005KT 15/M11 A2996 RMK A01 T01541105  RH  016%=      5-min Rain = 0
KSB1 161350Z 33006KT 15/M11 A2996 RMK A01 T01541105  RH  016%=      5-min Rain = 0
KSB1 161351Z 33005KT 15/M10 A2996 RMK A01 T01541104  RH  016%=      5-min Rain = 0
KSB1 161352Z 33006KT 15/M11 A2996 RMK A01 T01541105  RH  016%=      5-min Rain = 0
KSB1 161353Z 32006KT 15/M11 A2996 RMK A01 T01541105  RH  016%=      5-min Rain = 0
KSB1 161354Z 32006KT 15/M11 A2996 RMK A01 T01541105  RH  016%=      5-min Rain = 0
KSB1 161355Z 32005KT 16/M10 A2996 RMK A01 T01551104  RH  016%=      5-min Rain = 0
KSB1 161356Z 31005KT 16/M10 A2996 RMK A01 T01561104  RH  016%=      5-min Rain = 0
KSB1 161357Z 32005KT 16/M10 A2996 RMK A01 T01581103  RH  016%=      5-min Rain = 0
KSB1 161358Z 33004KT 16/M10 A2996 RMK A01 T01611103  RH  015%=      5-min Rain = 0
KSB1 161359Z 32004KT 16/M10 A2996 RMK A01 T01621102  RH  015%=      5-min Rain = 0
KSB1 161400Z 32005KT 16/M10 A2996 RMK A01 T01631103  RH  015%=      5-min Rain = 0
KSB1 161401Z 32004KT 16/M10 A2996 RMK A01 T01641101  RH  015%=      5-min Rain = 0
KSB1 161402Z 31004KT 17/M10 A2996 RMK A01 T01651100  RH  015%=      5-min Rain = 0
KSB1 161403Z 32004KT 17/M10 A2996 RMK A01 T01671101  RH  015%=      5-min Rain = 0
KSB1 161404Z 32004KT 17/M10 A2996 RMK A01 T01691100  RH  015%=      5-min Rain = 0
KSB1 161405Z 32003KT 17/M10 A2996 RMK A01 T01701100  RH  015%=      5-min Rain = 0
KSB1 161406Z 32003KT 17/M10 A2996 RMK A01 T01711099  RH  015%=      5-min Rain = 0
KSB1 161407Z 32004KT 17/M10 A2996 RMK A01 T01721099  RH  015%=      5-min Rain = 0
KSB1 161408Z 31003KT 17/M10 A2996 RMK A01 T01721100  RH  015%=      5-min Rain = 0
KSB1 161409Z 31005KT 17/M10 A2996 RMK A01 T01741100  RH  014%=      5-min Rain = 0
KSB1 161410Z 33004KT 18/M10 A2996 RMK A01 T01751100  RH  014%=      5-min Rain = 0
KSB1 161411Z 31005KT 18/M10 A2996 RMK A01 T01761100  RH  014%=      5-min Rain = 0
KSB1 161412Z 31006KT 18/M10 A2996 RMK A01 T01761101  RH  014%=      5-min Rain = 0
KSB1 161413Z 32006KT 18/M10 A2996 RMK A01 T01771100  RH  014%=      5-min Rain = 0
KSB1 161414Z 32003KT 18/M10 A2996 RMK A01 T01771101  RH  014%=      5-min Rain = 0
KSB1 161415Z 30006KT 18/M10 A2996 RMK A01 T01781100  RH  014%=      5-min Rain = 0
KSB1 161416Z 31007KT 18/M10 A2996 RMK A01 T01781101  RH  014%=      5-min Rain = 0
KSB1 161417Z 31007KT 18/M10 A2996 RMK A01 T01781101  RH  014%=      5-min Rain = 0
KSB1 161418Z 31007KT 18/M10 A2997 RMK A01 T01781101  RH  014%=      5-min Rain = 0
KSB1 161419Z 31007KT 18/M10 A2997 RMK A01 T01781100  RH  014%=      5-min Rain = 0
KSB1 161420Z 30007KT 18/M10 A2997 RMK A01 T01781101  RH  014%=      5-min Rain = 0
KSB1 161421Z 30008KT 18/M10 A2997 RMK A01 T01781100  RH  014%=      5-min Rain = 0
KSB1 161422Z 30006KT 18/M10 A2997 RMK A01 T01771101  RH  014%=      5-min Rain = 0
KSB1 161423Z 29005KT 18/M10 A2997 RMK A01 T01771100  RH  014%=      5-min Rain = 0
KSB1 161424Z 29005KT 18/M10 A2997 RMK A01 T01781099  RH  014%=      5-min Rain = 0
KSB1 161425Z 30005KT 18/M10 A2997 RMK A01 T01771100  RH  014%=      5-min Rain = 0
KSB1 161426Z 28005KT 18/M10 A2997 RMK A01 T01771100  RH  014%=      5-min Rain = 0
KSB1 161427Z 28006KT 18/M10 A2997 RMK A01 T01771099  RH  014%=      5-min Rain = 0
KSB1 161428Z 29007KT 18/M10 A2997 RMK A01 T01781100  RH  014%=      5-min Rain = 0
KSB1 161429Z 28006KT 18/M10 A2997 RMK A01 T01791100  RH  014%=      5-min Rain = 0
KSB1 161430Z 29005KT 18/M10 A2997 RMK A01 T01781100  RH  014%=      5-min Rain = 0
KSB1 161431Z 28006KT 18/M10 A2997 RMK A01 T01791099  RH  014%=      5-min Rain = 0
KSB1 161432Z 29006KT 18/M10 A2997 RMK A01 T01811098  RH  014%=      5-min Rain = 0
KSB1 161433Z 29005KT 18/M10 A2997 RMK A01 T01821099  RH  014%=      5-min Rain = 0
KSB1 161434Z 29006KT 18/M10 A2997 RMK A01 T01831098  RH  014%=      5-min Rain = 0
KSB1 161435Z 29007KT 18/M10 A2997 RMK A01 T01841097  RH  014%=      5-min Rain = 0
KSB1 161436Z 30008KT 19/M10 A2997 RMK A01 T01851097  RH  014%=      5-min Rain = 0
KSB1 161437Z 32008KT 19/M10 A2997 RMK A01 T01851098  RH  014%=      5-min Rain = 0
KSB1 161438Z 30007KT 18/M10 A2997 RMK A01 T01841098  RH  014%=      5-min Rain = 0
KSB1 161439Z 30009KT 19/M10 A2997 RMK A01 T01851097  RH  014%=      5-min Rain = 0
KSB1 161440Z 30009KT 19/M10 A2997 RMK A01 T01851098  RH  014%=      5-min Rain = 0
KSB1 161441Z 29008KT 19/M10 A2997 RMK A01 T01851098  RH  014%=      5-min Rain = 0
KSB1 161442Z 30006KT 19/M10 A2997 RMK A01 T01851098  RH  014%=      5-min Rain = 0
KSB1 161443Z 30005KT 19/M10 A2997 RMK A01 T01851097  RH  014%=      5-min Rain = 0
KSB1 161444Z 29007KT 19/M10 A2997 RMK A01 T01871096  RH  014%=      5-min Rain = 0
KSB1 161445Z 28008KT 19/M10 A2997 RMK A01 T01871097  RH  014%=      5-min Rain = 0
KSB1 161446Z 30007KT 19/M10 A2997 RMK A01 T01861097  RH  014%=      5-min Rain = 0
KSB1 161447Z 31007KT 19/M10 A2997 RMK A01 T01861097  RH  014%=      5-min Rain = 0
KSB1 161448Z 30008KT 19/M10 A2997 RMK A01 T01861097  RH  014%=      5-min Rain = 0
KSB1 161449Z 30010KT 19/M10 A2997 RMK A01 T01851098  RH  014%=      5-min Rain = 0
KSB1 161450Z 31007KT 18/M10 A2997 RMK A01 T01831100  RH  014%=      5-min Rain = 0
KSB1 161451Z 30006KT 18/M10 A2997 RMK A01 T01821098  RH  014%=      5-min Rain = 0
KSB1 161452Z 29005KT 18/M10 A2997 RMK A01 T01821098  RH  014%=      5-min Rain = 0
KSB1 161453Z 30007KT 18/M10 A2997 RMK A01 T01831098  RH  014%=      5-min Rain = 0
KSB1 161454Z 31007KT 18/M10 A2997 RMK A01 T01831099  RH  014%=      5-min Rain = 0
KSB1 161455Z 30007KT 18/M10 A2997 RMK A01 T01821099  RH  014%=      5-min Rain = 0
KSB1 161456Z 28007KT 18/M10 A2997 RMK A01 T01821100  RH  014%=      5-min Rain = 0
KSB1 161457Z 30009KT 18/M10 A2997 RMK A01 T01811099  RH  014%=      5-min Rain = 0
KSB1 161458Z 30008KT 18/M10 A2997 RMK A01 T01811099  RH  014%=      5-min Rain = 0
KSB1 161459Z 32007KT 18/M10 A2997 RMK A01 T01811099  RH  014%=      5-min Rain = 0
KSB1 161500Z 31010KT 18/M10 A2997 RMK A01 T01821099  RH  014%=      5-min Rain = 0
KSB1 161501Z 30010KT 18/M10 A2997 RMK A01 T01831099  RH  014%=      5-min Rain = 0
KSB1 161502Z 31007KT 18/M10 A2997 RMK A01 T01831099  RH  014%=      5-min Rain = 0
KSB1 161503Z 32009KT 18/M10 A2997 RMK A01 T01841099  RH  014%=      5-min Rain = 0
KSB1 161504Z 33009KT 18/M10 A2997 RMK A01 T01841099  RH  014%=      5-min Rain = 0
KSB1 161505Z 32010KT 18/M10 A2997 RMK A01 T01841098  RH  014%=      5-min Rain = 0
KSB1 161506Z 32011KT 18/M10 A2997 RMK A01 T01831099  RH  014%=      5-min Rain = 0
KSB1 161507Z 31010KT 18/M10 A2997 RMK A01 T01831099  RH  014%=      5-min Rain = 0
KSB1 161508Z 31009KT 18/M10 A2997 RMK A01 T01841100  RH  014%=      5-min Rain = 0
KSB1 161509Z 31009KT 18/M10 A2997 RMK A01 T01841100  RH  014%=      5-min Rain = 0
KSB1 161510Z 30008KT 18/M10 A2997 RMK A01 T01841100  RH  014%=      5-min Rain = 0
KSB1 161511Z 33008KT 18/M10 A2997 RMK A01 T01841100  RH  014%=      5-min Rain = 0
KSB1 161512Z 34011KT 18/M10 A2997 RMK A01 T01841099  RH  014%=      5-min Rain = 0
KSB1 161513Z 33010KT 19/M10 A2997 RMK A01 T01851099  RH  014%=      5-min Rain = 0
KSB1 161514Z 34008KT 19/M10 A2997 RMK A01 T01851100  RH  013%=      5-min Rain = 0
KSB1 161515Z 32009KT 19/M10 A2997 RMK A01 T01851099  RH  014%=      5-min Rain = 0
KSB1 161516Z 32006KT 19/M10 A2997 RMK A01 T01871098  RH  014%=      5-min Rain = 0
KSB1 161517Z 31006KT 19/M10 A2997 RMK A01 T01891098  RH  013%=      5-min Rain = 0
KSB1 161518Z 32007KT 19/M10 A2997 RMK A01 T01891099  RH  013%=      5-min Rain = 0
KSB1 161519Z 32009KT 19/M10 A2997 RMK A01 T01891098  RH  013%=      5-min Rain = 0
KSB1 161520Z 32007KT 19/M10 A2997 RMK A01 T01901099  RH  013%=      5-min Rain = 0
KSB1 161521Z 30007KT 19/M10 A2997 RMK A01 T01901099  RH  013%=      5-min Rain = 0
KSB1 161522Z 31009KT 19/M10 A2997 RMK A01 T01911099  RH  013%=      5-min Rain = 0
KSB1 161523Z 30010KT 19/M10 A2997 RMK A01 T01901100  RH  013%=      5-min Rain = 0
KSB1 161524Z 31010KT 19/M10 A2997 RMK A01 T01881100  RH  013%=      5-min Rain = 0
KSB1 161525Z 32009KT 19/M10 A2997 RMK A01 T01901100  RH  013%=      5-min Rain = 0
KSB1 161526Z 31009KT 19/M10 A2997 RMK A01 T01911100  RH  013%=      5-min Rain = 0
KSB1 161527Z 31012KT 19/M10 A2997 RMK A01 T01921100  RH  013%=      5-min Rain = 0
KSB1 161528Z 30009KT 19/M10 A2997 RMK A01 T01901103  RH  013%=      5-min Rain = 0
KSB1 161529Z 30009KT 19/M10 A2997 RMK A01 T01881102  RH  013%=      5-min Rain = 0
KSB1 161530Z 33008KT 19/M10 A2997 RMK A01 T01871102  RH  013%=      5-min Rain = 0
KSB1 161531Z 33008KT 19/M10 A2997 RMK A01 T01881101  RH  013%=      5-min Rain = 0
KSB1 161532Z 33008KT 19/M10 A2997 RMK A01 T01891101  RH  013%=      5-min Rain = 0
KSB1 161533Z 32010KT 19/M10 A2997 RMK A01 T01891100  RH  013%=      5-min Rain = 0
KSB1 161534Z 29008KT 19/M10 A2997 RMK A01 T01891102  RH  013%=      5-min Rain = 0
KSB1 161535Z 31007KT 19/M10 A2997 RMK A01 T01881102  RH  013%=      5-min Rain = 0
KSB1 161536Z 31006KT 19/M10 A2997 RMK A01 T01881101  RH  013%=      5-min Rain = 0
KSB1 161537Z 30007KT 19/M10 A2998 RMK A01 T01891101  RH  013%=      5-min Rain = 0
KSB1 161538Z 32009KT 19/M10 A2997 RMK A01 T01901100  RH  013%=      5-min Rain = 0
KSB1 161539Z 31007KT 19/M10 A2998 RMK A01 T01911101  RH  013%=      5-min Rain = 0
KSB1 161540Z 32007KT 19/M10 A2998 RMK A01 T01931100  RH  013%=      5-min Rain = 0
KSB1 161541Z 31008KT 19/M10 A2998 RMK A01 T01931102  RH  013%=      5-min Rain = 0
KSB1 161542Z 31009KT 19/M10 A2998 RMK A01 T01921100  RH  013%=      5-min Rain = 0
KSB1 161543Z 30011KT 19/M10 A2998 RMK A01 T01941100  RH  013%=      5-min Rain = 0
KSB1 161544Z 31009KT 19/M10 A2998 RMK A01 T01931102  RH  013%=      5-min Rain = 0
KSB1 161545Z 31008KT 19/M10 A2998 RMK A01 T01911102  RH  013%=      5-min Rain = 0
KSB1 161546Z 30009KT 19/M10 A2998 RMK A01 T01901102  RH  013%=      5-min Rain = 0
KSB1 161547Z 30008KT 19/M10 A2998 RMK A01 T01891102  RH  013%=      5-min Rain = 0
KSB1 161548Z 31008KT 19/M10 A2998 RMK A01 T01891101  RH  013%=      5-min Rain = 0
KSB1 161549Z 32008KT 19/M10 A2998 RMK A01 T01901101  RH  013%=      5-min Rain = 0
KSB1 161550Z 33010KT 19/M10 A2998 RMK A01 T01901101  RH  013%=      5-min Rain = 0
KSB1 161551Z 33009KT 19/M10 A2998 RMK A01 T01911102  RH  013%=      5-min Rain = 0
KSB1 161552Z 33009KT 19/M10 A2998 RMK A01 T01921102  RH  013%=      5-min Rain = 0
KSB1 161553Z 32008KT 19/M10 A2998 RMK A01 T01921102  RH  013%=      5-min Rain = 0
KSB1 161554Z 32008KT 19/M10 A2998 RMK A01 T01931101  RH  013%=      5-min Rain = 0
KSB1 161555Z 31007KT 19/M10 A2998 RMK A01 T01941102  RH  013%=      5-min Rain = 0
KSB1 161556Z 31008KT 19/M10 A2998 RMK A01 T01921103  RH  013%=      5-min Rain = 0
KSB1 161557Z 31006KT 19/M10 A2998 RMK A01 T01911102  RH  013%=      5-min Rain = 0
KSB1 161558Z 33007KT 19/M10 A2998 RMK A01 T01921100  RH  013%=      5-min Rain = 0
KSB1 161559Z 33009KT 19/M10 A2998 RMK A01 T01941101  RH  013%=      5-min Rain = 0
KSB1 161600Z 33010KT 20/M10 A2998 RMK A01 T01951102  RH  012%=      5-min Rain = 0
KSB1 161601Z 33009KT 20/M10 A2998 RMK A01 T01951103  RH  012%=      5-min Rain = 0
KSB1 161602Z 32012KT 20/M10 A2998 RMK A01 T01971101  RH  012%=      5-min Rain = 0
KSB1 161603Z 33009KT 20/M10 A2998 RMK A01 T01971102  RH  012%=      5-min Rain = 0
KSB1 161604Z 33011KT 20/M10 A2998 RMK A01 T01971102  RH  012%=      5-min Rain = 0
KSB1 161605Z 32009KT 20/M10 A2998 RMK A01 T01971102  RH  012%=      5-min Rain = 0
KSB1 161606Z 33010KT 20/M10 A2998 RMK A01 T01981101  RH  012%=      5-min Rain = 0
KSB1 161607Z 33008KT 20/M10 A2998 RMK A01 T01991101  RH  012%=      5-min Rain = 0
KSB1 161608Z 34006KT 20/M10 A2998 RMK A01 T01971102  RH  012%=      5-min Rain = 0
KSB1 161609Z 34010KT 20/M10 A2998 RMK A01 T01971100  RH  012%=      5-min Rain = 0
KSB1 161610Z 34011KT 20/M10 A2997 RMK A01 T01991100  RH  012%=      5-min Rain = 0
KSB1 161611Z 33012KT 20/M10 A2997 RMK A01 T02001101  RH  012%=      5-min Rain = 0
KSB1 161612Z 33008KT 20/M10 A2997 RMK A01 T02001101  RH  012%=      5-min Rain = 0
KSB1 161613Z 34010KT 20/M10 A2997 RMK A01 T02001100  RH  012%=      5-min Rain = 0
KSB1 161614Z 34011KT 20/M10 A2997 RMK A01 T02021100  RH  012%=      5-min Rain = 0
KSB1 161615Z 33009KT 20/M10 A2997 RMK A01 T02001101  RH  012%=      5-min Rain = 0
KSB1 161616Z 31010KT 20/M10 A2997 RMK A01 T01991101  RH  012%=      5-min Rain = 0
KSB1 161617Z 31009KT 20/M10 A2997 RMK A01 T01991102  RH  012%=      5-min Rain = 0
KSB1 161618Z 32008KT 20/M10 A2997 RMK A01 T01971102  RH  012%=      5-min Rain = 0
KSB1 161619Z 33010KT 20/M10 A2997 RMK A01 T01961101  RH  012%=      5-min Rain = 0
KSB1 161620Z 33009KT 20/M10 A2997 RMK A01 T01971101  RH  012%=      5-min Rain = 0
KSB1 161621Z 34007KT 20/M10 A2997 RMK A01 T01971102  RH  012%=      5-min Rain = 0
KSB1 161622Z 35006G11KT 20/M10 A2997 RMK A01 T01961104  RH  012%=      5-min Rain = 0
KSB1 161623Z 32008KT 20/M10 A2997 RMK A01 T01951104  RH  012%=      5-min Rain = 0
KSB1 161624Z 32010KT 20/M10 A2997 RMK A01 T01971104  RH  012%=      5-min Rain = 0
KSB1 161625Z 31011KT 20/M11 A2997 RMK A01 T01971105  RH  012%=      5-min Rain = 0
KSB1 161626Z 31010KT 20/M11 A2997 RMK A01 T01961106  RH  012%=      5-min Rain = 0
KSB1 161627Z 31011KT 20/M11 A2997 RMK A01 T01961105  RH  012%=      5-min Rain = 0
KSB1 161628Z 30010KT 20/M11 A2997 RMK A01 T01961105  RH  012%=      5-min Rain = 0
KSB1 161629Z 30010KT 20/M11 A2997 RMK A01 T01961105  RH  012%=      5-min Rain = 0
KSB1 161630Z 30010KT 20/M11 A2997 RMK A01 T01951106  RH  012%=      5-min Rain = 0
KSB1 161631Z 31010KT 20/M11 A2997 RMK A01 T01951105  RH  012%=      5-min Rain = 0
KSB1 161632Z 31007KT 19/M11 A2997 RMK A01 T01941106  RH  012%=      5-min Rain = 0
KSB1 161633Z 33006KT 19/M11 A2997 RMK A01 T01941106  RH  012%=      5-min Rain = 0
KSB1 161634Z 31010KT 20/M11 A2997 RMK A01 T01951105  RH  012%=      5-min Rain = 0
KSB1 161635Z 31009KT 20/M11 A2997 RMK A01 T01961106  RH  012%=      5-min Rain = 0
KSB1 161636Z 31009KT 20/M11 A2997 RMK A01 T01961106  RH  012%=      5-min Rain = 0
KSB1 161637Z 31008KT 20/M11 A2997 RMK A01 T01961105  RH  012%=      5-min Rain = 0
KSB1 161638Z 32006KT 20/M10 A2997 RMK A01 T01961104  RH  012%=      5-min Rain = 0
KSB1 161639Z 31007KT 20/M10 A2997 RMK A01 T01971104  RH  012%=      5-min Rain = 0
KSB1 161640Z 32009KT 20/M10 A2997 RMK A01 T01991103  RH  012%=      5-min Rain = 0
KSB1 161641Z 31009KT 20/M10 A2997 RMK A01 T02001102  RH  012%=      5-min Rain = 0
KSB1 161642Z 32009KT 20/M10 A2997 RMK A01 T02001102  RH  012%=      5-min Rain = 0
KSB1 161643Z 32009KT 20/M10 A2997 RMK A01 T02001102  RH  012%=      5-min Rain = 0
KSB1 161644Z 31009KT 20/M10 A2997 RMK A01 T02011102  RH  012%=      5-min Rain = 0
KSB1 161645Z 32009KT 20/M10 A2997 RMK A01 T02021102  RH  012%=      5-min Rain = 0
KSB1 161646Z 32009KT 20/M10 A2997 RMK A01 T02021102  RH  012%=      5-min Rain = 0
KSB1 161647Z 31007KT 20/M10 A2997 RMK A01 T02011102  RH  012%=      5-min Rain = 0
KSB1 161648Z 33007KT 20/M10 A2997 RMK A01 T02011101  RH  012%=      5-min Rain = 0
KSB1 161649Z 32008KT 20/M10 A2997 RMK A01 T02021101  RH  012%=      5-min Rain = 0
KSB1 161650Z 31007KT 20/M10 A2997 RMK A01 T02041100  RH  012%=      5-min Rain = 0
KSB1 161651Z 33011KT 20/M10 A2997 RMK A01 T02041101  RH  012%=      5-min Rain = 0
KSB1 161652Z 32011KT 20/M10 A2997 RMK A01 T02041101  RH  012%=      5-min Rain = 0
KSB1 161653Z 31009KT 20/M10 A2998 RMK A01 T02031101  RH  012%=      5-min Rain = 0
KSB1 161654Z 31010KT 20/M10 A2998 RMK A01 T02011100  RH  012%=      5-min Rain = 0
KSB1 161655Z 30011KT 20/M10 A2998 RMK A01 T02001100  RH  012%=      5-min Rain = 0
KSB1 161656Z 30010KT 20/M10 A2998 RMK A01 T02001099  RH  012%=      5-min Rain = 0
KSB1 161657Z 31010KT 20/M10 A2998 RMK A01 T02001100  RH  012%=      5-min Rain = 0
KSB1 161658Z 30009KT 20/M10 A2998 RMK A01 T02011099  RH  012%=      5-min Rain = 0
KSB1 161659Z 31009KT 20/M10 A2998 RMK A01 T02021100  RH  012%=      5-min Rain = 0
KSB1 161700Z 31009KT 20/M10 A2998 RMK A01 T02001100  RH  012%=      5-min Rain = 0
KSB1 161701Z 30008KT 20/M10 A2998 RMK A01 T02001099  RH  012%=      5-min Rain = 0
KSB1 161702Z 31009KT 20/M10 A2998 RMK A01 T02011099  RH  012%=      5-min Rain = 0
KSB1 161703Z 31009KT 20/M10 A2998 RMK A01 T02021098  RH  012%=      5-min Rain = 0
KSB1 161704Z 31010KT 20/M10 A2998 RMK A01 T02021098  RH  012%=      5-min Rain = 0
KSB1 161705Z 31007KT 20/M10 A2998 RMK A01 T02021098  RH  012%=      5-min Rain = 0
KSB1 161706Z 31007KT 20/M10 A2997 RMK A01 T02021098  RH  012%=      5-min Rain = 0
KSB1 161707Z 32010KT 20/M10 A2997 RMK A01 T02031098  RH  012%=      5-min Rain = 0
KSB1 161708Z 32012KT 20/M10 A2997 RMK A01 T02041097  RH  012%=      5-min Rain = 0
KSB1 161709Z 33010KT 20/M10 A2997 RMK A01 T02041097  RH  012%=      5-min Rain = 0
KSB1 161710Z 32009KT 21/M10 A2997 RMK A01 T02061095  RH  012%=      5-min Rain = 0
KSB1 161711Z 32007KT 21/M10 A2997 RMK A01 T02071097  RH  012%=      5-min Rain = 0
KSB1 161712Z 30007KT 21/M10 A2997 RMK A01 T02061097  RH  012%=      5-min Rain = 0
KSB1 161713Z 31009KT 21/M10 A2997 RMK A01 T02061096  RH  012%=      5-min Rain = 0
KSB1 161714Z 32010KT 21/M09 A2997 RMK A01 T02071093  RH  012%=      5-min Rain = 0
KSB1 161715Z 34009KT 21/M09 A2998 RMK A01 T02071092  RH  012%=      5-min Rain = 0
KSB1 161716Z 33006KT 21/M09 A2998 RMK A01 T02071092  RH  012%=      5-min Rain = 0
KSB1 161717Z 32010KT 21/M09 A2998 RMK A01 T02071092  RH  012%=      5-min Rain = 0
KSB1 161718Z 32009KT 21/M09 A2998 RMK A01 T02091092  RH  012%=      5-min Rain = 0
KSB1 161719Z 34009KT 21/M09 A2998 RMK A01 T02071093  RH  012%=      5-min Rain = 0
KSB1 161720Z 34010KT 21/M09 A2997 RMK A01 T02061093  RH  012%=      5-min Rain = 0
KSB1 161721Z 33010KT 21/M09 A2997 RMK A01 T02071093  RH  012%=      5-min Rain = 0
KSB1 161722Z 32007KT 21/M09 A2998 RMK A01 T02051094  RH  012%=      5-min Rain = 0
KSB1 161723Z 33007KT 20/M10 A2998 RMK A01 T02041095  RH  012%=      5-min Rain = 0
KSB1 161724Z 33007KT 20/M10 A2998 RMK A01 T02041095  RH  012%=      5-min Rain = 0
KSB1 161725Z 32009KT 20/M10 A2998 RMK A01 T02031095  RH  012%=      5-min Rain = 0
KSB1 161726Z 32007KT 20/M10 A2998 RMK A01 T02021096  RH  013%=      5-min Rain = 0
KSB1 161727Z 33007KT 20/M10 A2998 RMK A01 T02001096  RH  013%=      5-min Rain = 0
KSB1 161728Z 32008KT 20/M10 A2998 RMK A01 T02011095  RH  013%=      5-min Rain = 0
KSB1 161729Z 32012KT 20/M09 A2997 RMK A01 T02011090  RH  013%=      5-min Rain = 0
KSB1 161730Z 31009KT 20/M09 A2997 RMK A01 T02021087  RH  013%=      5-min Rain = 0
KSB1 161731Z 31009KT 20/M09 A2997 RMK A01 T02011088  RH  013%=      5-min Rain = 0
KSB1 161732Z 30009KT 20/M09 A2997 RMK A01 T02011089  RH  013%=      5-min Rain = 0
KSB1 161733Z 32010G15KT 20/M09 A2997 RMK A01 T02011089  RH  013%=      5-min Rain = 0
KSB1 161734Z 33011KT 20/M09 A2997 RMK A01 T02021088  RH  013%=      5-min Rain = 0
KSB1 161735Z 32011KT 20/M09 A2997 RMK A01 T02031089  RH  013%=      5-min Rain = 0
KSB1 161736Z 31010KT 20/M09 A2997 RMK A01 T02021089  RH  013%=      5-min Rain = 0
KSB1 161737Z 31012KT 20/M09 A2997 RMK A01 T02031086  RH  013%=      5-min Rain = 0
KSB1 161738Z 31010KT 20/M09 A2997 RMK A01 T02021085  RH  014%=      5-min Rain = 0
KSB1 161739Z 32011KT 20/M09 A2997 RMK A01 T02011086  RH  014%=      5-min Rain = 0
KSB1 161740Z 32011KT 20/M09 A2997 RMK A01 T02001089  RH  013%=      5-min Rain = 0
KSB1 161741Z 32013KT 20/M09 A2997 RMK A01 T01991088  RH  014%=      5-min Rain = 0
KSB1 161742Z 31011KT 20/M09 A2997 RMK A01 T01991089  RH  013%=      5-min Rain = 0
KSB1 161743Z 31009KT 20/M09 A2998 RMK A01 T01991090  RH  013%=      5-min Rain = 0
KSB1 161744Z 31007KT 20/M09 A2998 RMK A01 T01981091  RH  013%=      5-min Rain = 0
KSB1 161745Z 30007KT 20/M09 A2998 RMK A01 T01991090  RH  013%=      5-min Rain = 0
KSB1 161746Z 31009KT 20/M09 A2998 RMK A01 T02001090  RH  013%=      5-min Rain = 0
KSB1 161747Z 31010KT 20/M09 A2998 RMK A01 T02001086  RH  014%=      5-min Rain = 0
KSB1 161748Z 32011KT 20/M09 A2998 RMK A01 T01991086  RH  014%=      5-min Rain = 0
KSB1 161749Z 32010KT 20/M09 A2997 RMK A01 T01991086  RH  014%=      5-min Rain = 0
KSB1 161750Z 32010KT 20/M09 A2998 RMK A01 T01991087  RH  014%=      5-min Rain = 0
KSB1 161751Z 31009KT 20/M09 A2997 RMK A01 T01991088  RH  014%=      5-min Rain = 0
KSB1 161752Z 29010KT 20/M09 A2998 RMK A01 T02001089  RH  013%=      5-min Rain = 0
KSB1 161753Z 28008KT 20/M09 A2998 RMK A01 T02011090  RH  013%=      5-min Rain = 0
KSB1 161754Z 27008KT 20/M09 A2997 RMK A01 T02011091  RH  013%=      5-min Rain = 0
KSB1 161755Z 29007KT 20/M09 A2997 RMK A01 T01991092  RH  013%=      5-min Rain = 0
KSB1 161756Z 29006KT 20/M09 A2997 RMK A01 T01981091  RH  013%=      5-min Rain = 0
KSB1 161757Z 29006KT 20/M09 A2997 RMK A01 T01971091  RH  013%=      5-min Rain = 0
KSB1 161758Z 31005KT 20/M09 A2997 RMK A01 T01961090  RH  014%=      5-min Rain = 0
KSB1 161759Z 29007KT 20/M09 A2997 RMK A01 T01961090  RH  014%=      5-min Rain = 0
KSB1 161800Z 30006KT 20/M09 A2997 RMK A01 T01961090  RH  014%=      5-min Rain = 0
KSB1 161801Z 31010KT 20/M09 A2997 RMK A01 T01971090  RH  014%=      5-min Rain = 0
KSB1 161802Z 31008KT 20/M09 A2997 RMK A01 T01971092  RH  013%=      5-min Rain = 0
KSB1 161803Z 31007KT 20/M09 A2997 RMK A01 T01961089  RH  014%=      5-min Rain = 0
KSB1 161804Z 32007KT 20/M09 A2997 RMK A01 T01971088  RH  014%=      5-min Rain = 0
KSB1 161805Z 32009KT 20/M09 A2997 RMK A01 T01971087  RH  014%=      5-min Rain = 0
KSB1 161806Z 31010KT 20/M09 A2997 RMK A01 T01981087  RH  014%=      5-min Rain = 0
KSB1 161807Z 31008G13KT 20/M09 A2997 RMK A01 T01991089  RH  013%=      5-min Rain = 0
KSB1 161808Z 30009KT 20/M09 A2997 RMK A01 T01991089  RH  013%=      5-min Rain = 0
KSB1 161809Z 32009KT 20/M09 A2997 RMK A01 T01971087  RH  014%=      5-min Rain = 0
KSB1 161810Z 33008KT 20/M09 A2997 RMK A01 T01961088  RH  014%=      5-min Rain = 0
KSB1 161811Z 28011KT 20/M09 A2997 RMK A01 T01961087  RH  014%=      5-min Rain = 0
KSB1 161812Z 29012KT 20/M08 A2997 RMK A01 T01971084  RH  014%=      5-min Rain = 0
KSB1 161813Z 28010KT 20/M08 A2997 RMK A01 T01961082  RH  014%=      5-min Rain = 0
KSB1 161814Z 28010KT 20/M08 A2997 RMK A01 T01961083  RH  014%=      5-min Rain = 0
KSB1 161815Z 28010KT 20/M08 A2997 RMK A01 T01971084  RH  014%=      5-min Rain = 0
KSB1 161816Z 28011KT 20/M09 A2997 RMK A01 T01971085  RH  014%=      5-min Rain = 0
KSB1 161817Z 27010KT 20/M08 A2997 RMK A01 T01951083  RH  014%=      5-min Rain = 0
KSB1 161818Z 26009KT 20/M08 A2997 RMK A01 T01951082  RH  015%=      5-min Rain = 0
KSB1 161819Z 27009KT 19/M08 A2997 RMK A01 T01941082  RH  015%=      5-min Rain = 0
KSB1 161820Z 28008KT 19/M08 A2997 RMK A01 T01941082  RH  015%=      5-min Rain = 0
KSB1 161821Z 27007KT 19/M08 A2997 RMK A01 T01941082  RH  015%=      5-min Rain = 0
KSB1 161822Z 28010KT 19/M08 A2997 RMK A01 T01941084  RH  015%=      5-min Rain = 0
KSB1 161823Z 30011KT 19/M08 A2997 RMK A01 T01941083  RH  015%=      5-min Rain = 0
KSB1 161824Z 29009KT 20/M08 A2997 RMK A01 T01951082  RH  015%=      5-min Rain = 0
KSB1 161825Z 28010KT 20/M08 A2997 RMK A01 T01951082  RH  015%=      5-min Rain = 0
KSB1 161826Z 29010KT 20/M08 A2997 RMK A01 T01951082  RH  015%=      5-min Rain = 0
KSB1 161827Z 30010KT 19/M08 A2997 RMK A01 T01941080  RH  015%=      5-min Rain = 0
KSB1 161828Z 29008KT 19/M08 A2997 RMK A01 T01931081  RH  015%=      5-min Rain = 0
KSB1 161829Z 28007KT 19/M08 A2997 RMK A01 T01931081  RH  015%=      5-min Rain = 0
KSB1 161830Z 28008KT 19/M08 A2997 RMK A01 T01931081  RH  015%=      5-min Rain = 0
KSB1 161831Z 28009KT 19/M08 A2997 RMK A01 T01941080  RH  015%=      5-min Rain = 0
KSB1 161832Z 27011KT 20/M08 A2997 RMK A01 T01951081  RH  015%=      5-min Rain = 0
KSB1 161833Z 27009KT 20/M08 A2997 RMK A01 T01951081  RH  015%=      5-min Rain = 0
KSB1 161834Z 27007KT 20/M08 A2997 RMK A01 T01951081  RH  015%=      5-min Rain = 0
KSB1 161835Z 28010KT 20/M08 A2997 RMK A01 T01951081  RH  015%=      5-min Rain = 0
KSB1 161836Z 28008KT 20/M08 A2997 RMK A01 T01951080  RH  015%=      5-min Rain = 0
KSB1 161837Z 30007KT 20/M08 A2997 RMK A01 T01951080  RH  015%=      5-min Rain = 0
KSB1 161838Z 31005KT 20/M08 A2997 RMK A01 T01961081  RH  015%=      5-min Rain = 0
KSB1 161839Z 29008KT 20/M08 A2997 RMK A01 T01971080  RH  015%=      5-min Rain = 0
KSB1 161840Z 30010KT 20/M08 A2997 RMK A01 T01971082  RH  014%=      5-min Rain = 0
KSB1 161841Z 29009KT 20/M08 A2997 RMK A01 T01961082  RH  014%=      5-min Rain = 0
KSB1 161842Z 30008KT 20/M08 A2997 RMK A01 T01961082  RH  015%=      5-min Rain = 0
KSB1 161843Z 29008KT 20/M08 A2997 RMK A01 T01951083  RH  014%=      5-min Rain = 0
KSB1 161844Z 29008KT 20/M08 A2997 RMK A01 T01951082  RH  015%=      5-min Rain = 0
KSB1 161845Z 28008KT 20/M08 A2997 RMK A01 T01951082  RH  015%=      5-min Rain = 0
KSB1 161846Z 28006KT 19/M08 A2997 RMK A01 T01941082  RH  015%=      5-min Rain = 0
KSB1 161847Z 28006KT 19/M08 A2997 RMK A01 T01941082  RH  015%=      5-min Rain = 0
KSB1 161848Z 28006KT 20/M08 A2997 RMK A01 T01961081  RH  015%=      5-min Rain = 0
KSB1 161849Z 28007KT 20/M08 A2997 RMK A01 T01971081  RH  015%=      5-min Rain = 0
KSB1 161850Z 29006KT 20/M08 A2997 RMK A01 T01971079  RH  015%=      5-min Rain = 0
KSB1 161851Z 29006KT 20/M08 A2997 RMK A01 T01971079  RH  015%=      5-min Rain = 0
KSB1 161852Z 30008KT 20/M08 A2997 RMK A01 T01981080  RH  015%=      5-min Rain = 0
KSB1 161853Z 29007KT 20/M08 A2997 RMK A01 T01971081  RH  014%=      5-min Rain = 0
KSB1 161854Z 31006KT 20/M08 A2997 RMK A01 T01961081  RH  015%=      5-min Rain = 0
KSB1 161855Z 31009KT 20/M08 A2997 RMK A01 T01961080  RH  015%=      5-min Rain = 0
KSB1 161856Z 31009KT 20/M08 A2997 RMK A01 T01971081  RH  015%=      5-min Rain = 0
KSB1 161857Z 29007KT 20/M08 A2997 RMK A01 T01971082  RH  014%=      5-min Rain = 0
KSB1 161858Z 30006KT 20/M08 A2997 RMK A01 T01951082  RH  015%=      5-min Rain = 0
KSB1 161859Z 28008KT 20/M08 A2997 RMK A01 T01951081  RH  015%=      5-min Rain = 0
KSB1 161900Z 28008KT 20/M08 A2997 RMK A01 T01951081  RH  015%=      5-min Rain = 0
KSB1 161901Z 31008KT 19/M08 A2997 RMK A01 T01941081  RH  015%=      5-min Rain = 0
KSB1 161902Z 32010KT 20/M08 A2997 RMK A01 T01951081  RH  015%=      5-min Rain = 0
KSB1 161903Z 29008KT 20/M08 A2997 RMK A01 T01961080  RH  015%=      5-min Rain = 0
KSB1 161904Z 29008KT 20/M08 A2997 RMK A01 T01951081  RH  015%=      5-min Rain = 0
KSB1 161905Z 31008KT 20/M08 A2997 RMK A01 T01951081  RH  015%=      5-min Rain = 0
KSB1 161906Z 32005G10KT 20/M08 A2997 RMK A01 T01951080  RH  015%=      5-min Rain = 0
KSB1 161907Z 32007KT 19/M08 A2997 RMK A01 T01941081  RH  015%=      5-min Rain = 0
KSB1 161908Z 32007KT 19/M08 A2997 RMK A01 T01941081  RH  015%=      5-min Rain = 0
KSB1 161909Z 31006KT 19/M08 A2997 RMK A01 T01931081  RH  015%=      5-min Rain = 0
KSB1 161910Z 31006KT 19/M08 A2997 RMK A01 T01931081  RH  015%=      5-min Rain = 0
KSB1 161911Z 31007KT 19/M08 A2997 RMK A01 T01941081  RH  015%=      5-min Rain = 0
KSB1 161912Z 33005KT 19/M08 A2997 RMK A01 T01941081  RH  015%=      5-min Rain = 0
KSB1 161913Z 33005KT 19/M08 A2997 RMK A01 T01941081  RH  015%=      5-min Rain = 0
KSB1 161914Z 32006KT 19/M08 A2997 RMK A01 T01941081  RH  015%=      5-min Rain = 0
KSB1 161915Z 30005KT 20/M08 A2997 RMK A01 T01951080  RH  015%=      5-min Rain = 0
KSB1 161916Z 30004KT 20/M08 A2997 RMK A01 T01951081  RH  015%=      5-min Rain = 0
KSB1 161917Z 29003KT 20/M08 A2997 RMK A01 T01951080  RH  015%=      5-min Rain = 0
KSB1 161918Z 33005KT 20/M08 A2997 RMK A01 T01961080  RH  015%=      5-min Rain = 0
KSB1 161919Z 31006KT 20/M08 A2997 RMK A01 T01971079  RH  015%=      5-min Rain = 0
KSB1 161920Z 30005KT 20/M08 A2997 RMK A01 T01971079  RH  015%=      5-min Rain = 0
KSB1 161921Z 31005KT 20/M08 A2997 RMK A01 T01971080  RH  015%=      5-min Rain = 0
KSB1 161922Z 32006KT 20/M08 A2997 RMK A01 T01971080  RH  015%=      5-min Rain = 0
KSB1 161923Z 32007KT 20/M08 A2997 RMK A01 T01971079  RH  015%=      5-min Rain = 0
KSB1 161924Z 32008KT 20/M08 A2997 RMK A01 T01981079  RH  015%=      5-min Rain = 0
KSB1 161925Z 32008KT 20/M08 A2997 RMK A01 T01971079  RH  015%=      5-min Rain = 0
KSB1 161926Z 31007KT 20/M08 A2997 RMK A01 T01971080  RH  015%=      5-min Rain = 0
KSB1 161927Z 31008KT 20/M08 A2997 RMK A01 T01971079  RH  015%=      5-min Rain = 0
KSB1 161928Z 30007KT 20/M08 A2997 RMK A01 T01961080  RH  015%=      5-min Rain = 0
KSB1 161929Z 30006KT 20/M08 A2997 RMK A01 T01961080  RH  015%=      5-min Rain = 0
KSB1 161930Z 31005KT 20/M08 A2997 RMK A01 T01961079  RH  015%=      5-min Rain = 0
KSB1 161931Z 31007KT 20/M08 A2997 RMK A01 T01961079  RH  015%=      5-min Rain = 0
KSB1 161932Z 29009KT 20/M08 A2997 RMK A01 T01961080  RH  015%=      5-min Rain = 0
KSB1 161933Z 31008KT 20/M08 A2997 RMK A01 T01961081  RH  015%=      5-min Rain = 0
KSB1 161934Z 32006KT 20/M08 A2997 RMK A01 T01961081  RH  015%=      5-min Rain = 0
KSB1 161935Z 30006KT 20/M08 A2997 RMK A01 T01961080  RH  015%=      5-min Rain = 0
KSB1 161936Z 28005KT 20/M08 A2997 RMK A01 T01961080  RH  015%=      5-min Rain = 0
KSB1 161937Z 29004KT 20/M08 A2997 RMK A01 T01971080  RH  015%=      5-min Rain = 0
KSB1 161938Z 31005KT 20/M08 A2996 RMK A01 T01971081  RH  015%=      5-min Rain = 0
KSB1 161939Z 30004KT 20/M08 A2996 RMK A01 T01971081  RH  014%=      5-min Rain = 0
KSB1 161940Z 33004KT 20/M08 A2996 RMK A01 T01971081  RH  014%=      5-min Rain = 0
KSB1 161941Z 31005KT 20/M08 A2996 RMK A01 T01981080  RH  014%=      5-min Rain = 0
KSB1 161942Z 28006KT 20/M08 A2996 RMK A01 T01991081  RH  014%=      5-min Rain = 0
KSB1 161943Z 29007KT 20/M08 A2996 RMK A01 T01991081  RH  014%=      5-min Rain = 0
KSB1 161944Z 29007KT 20/M07 A2996 RMK A01 T01991067  RH  016%=      5-min Rain = 0
KSB1 161945Z 29006KT 20/M05 A2996 RMK A01 T01981053  RH  018%=      5-min Rain = 0
KSB1 161946Z 26005KT 20/M05 A2996 RMK A01 T01971054  RH  018%=      5-min Rain = 0
KSB1 161947Z 26005KT 20/M06 A2996 RMK A01 T01961058  RH  017%=      5-min Rain = 0
KSB1 161948Z 26008KT 20/M06 A2995 RMK A01 T01951060  RH  017%=      5-min Rain = 0
KSB1 161949Z 28008KT 20/M06 A2995 RMK A01 T01961056  RH  018%=      5-min Rain = 0
KSB1 161950Z 28008KT 20/M06 A2995 RMK A01 T01971057  RH  018%=      5-min Rain = 0
KSB1 161951Z 28006KT 20/M06 A2995 RMK A01 T01971061  RH  017%=      5-min Rain = 0
KSB1 161952Z 30006KT 20/M06 A2995 RMK A01 T01971063  RH  017%=      5-min Rain = 0
KSB1 161953Z 32004KT 20/M06 A2995 RMK A01 T01971058  RH  017%=      5-min Rain = 0
KSB1 161954Z 32009KT 20/M06 A2995 RMK A01 T01981055  RH  018%=      5-min Rain = 0
KSB1 161955Z 29008KT 20/M05 A2995 RMK A01 T01981049  RH  018%=      5-min Rain = 0
KSB1 161956Z 29007KT 20/M05 A2996 RMK A01 T01981049  RH  018%=      5-min Rain = 0
KSB1 161957Z 26006KT 20/M05 A2995 RMK A01 T01991052  RH  018%=      5-min Rain = 0
KSB1 161958Z 29009G14KT 20/M06 A2995 RMK A01 T02001056  RH  017%=      5-min Rain = 0
KSB1 161959Z 28008KT 20/M06 A2995 RMK A01 T02011055  RH  017%=      5-min Rain = 0
KSB1 162000Z 29009KT 20/M05 A2995 RMK A01 T02011052  RH  018%=      5-min Rain = 0
KSB1 162001Z 29009KT 20/M06 A2995 RMK A01 T02011057  RH  017%=      5-min Rain = 0
KSB1 162002Z 29011KT 20/M06 A2995 RMK A01 T02011059  RH  017%=      5-min Rain = 0
KSB1 162003Z 26008KT 20/M06 A2995 RMK A01 T02011055  RH  017%=      5-min Rain = 0
KSB1 162004Z 29009KT 20/M06 A2995 RMK A01 T02011055  RH  017%=      5-min Rain = 0
KSB1 162005Z 28010KT 20/M06 A2995 RMK A01 T02011057  RH  017%=      5-min Rain = 0
KSB1 162006Z 26011KT 20/M05 A2995 RMK A01 T02021048  RH  018%=      5-min Rain = 0
KSB1 162007Z 24010G15KT 20/M04 A2995 RMK A01 T02011042  RH  019%=      5-min Rain = 0
KSB1 162008Z 26011KT 20/M04 A2995 RMK A01 T02001041  RH  019%=      5-min Rain = 0
KSB1 162009Z 27013KT 20/M04 A2995 RMK A01 T02001041  RH  019%=      5-min Rain = 0
KSB1 162010Z 26011KT 20/M04 A2995 RMK A01 T02001040  RH  020%=      5-min Rain = 0
KSB1 162011Z 26012KT 20/M04 A2995 RMK A01 T02001040  RH  020%=      5-min Rain = 0
KSB1 162012Z 26011KT 20/M04 A2995 RMK A01 T02001042  RH  019%=      5-min Rain = 0
KSB1 162013Z 27010KT 20/M04 A2995 RMK A01 T02011044  RH  019%=      5-min Rain = 0
KSB1 162014Z 28012G17KT 20/M05 A2995 RMK A01 T02031046  RH  018%=      5-min Rain = 0
KSB1 162015Z 28014KT 20/M04 A2995 RMK A01 T02031039  RH  019%=      5-min Rain = 0
KSB1 162016Z 28010KT 20/M04 A2995 RMK A01 T02021036  RH  020%=      5-min Rain = 0
KSB1 162017Z 29009KT 20/M04 A2995 RMK A01 T02011037  RH  020%=      5-min Rain = 0
KSB1 162018Z 29012KT 20/M04 A2994 RMK A01 T02011039  RH  020%=      5-min Rain = 0
KSB1 162019Z 28014KT 20/M04 A2995 RMK A01 T02021038  RH  019%=      5-min Rain = 0
KSB1 162020Z 28014KT 20/M04 A2995 RMK A01 T02021037  RH  020%=      5-min Rain = 0
KSB1 162021Z 27012KT 20/M03 A2995 RMK A01 T02021034  RH  020%=      5-min Rain = 0
KSB1 162022Z 28011KT 20/M03 A2995 RMK A01 T02021034  RH  020%=      5-min Rain = 0
KSB1 162023Z 28010KT 20/M04 A2995 RMK A01 T02031035  RH  020%=      5-min Rain = 0
KSB1 162024Z 28012KT 20/M03 A2994 RMK A01 T02031034  RH  020%=      5-min Rain = 0
KSB1 162025Z 26013KT 20/M03 A2994 RMK A01 T02041030  RH  020%=      5-min Rain = 0
KSB1 162026Z 27011KT 20/M03 A2994 RMK A01 T02031032  RH  020%=      5-min Rain = 0
KSB1 162027Z 28009KT 20/M03 A2994 RMK A01 T02031032  RH  020%=      5-min Rain = 0
KSB1 162028Z 28011KT 21/M03 A2994 RMK A01 T02051033  RH  020%=      5-min Rain = 0
KSB1 162029Z 28013KT 21/M04 A2994 RMK A01 T02051035  RH  020%=      5-min Rain = 0
KSB1 162030Z 28012KT 21/M04 A2994 RMK A01 T02051036  RH  020%=      5-min Rain = 0
KSB1 162031Z 28012KT 20/M04 A2994 RMK A01 T02041036  RH  019%=      5-min Rain = 0
KSB1 162032Z 29015KT 21/M04 A2994 RMK A01 T02061036  RH  019%=      5-min Rain = 0
KSB1 162033Z 29012KT 21/M04 A2994 RMK A01 T02061037  RH  019%=      5-min Rain = 0
KSB1 162034Z 28011KT 21/M04 A2994 RMK A01 T02051037  RH  019%=      5-min Rain = 0
KSB1 162035Z 29008KT 21/M04 A2994 RMK A01 T02061036  RH  019%=      5-min Rain = 0
KSB1 162036Z 29008KT 21/M03 A2994 RMK A01 T02071033  RH  020%=      5-min Rain = 0
KSB1 162037Z 31008KT 21/M03 A2994 RMK A01 T02091033  RH  019%=      5-min Rain = 0
KSB1 162038Z 31008G13KT 21/M04 A2994 RMK A01 T02101036  RH  019%=      5-min Rain = 0
KSB1 162039Z 31009KT 21/M04 A2994 RMK A01 T02121040  RH  018%=      5-min Rain = 0
KSB1 162040Z 32012KT 21/M04 A2994 RMK A01 T02141040  RH  018%=      5-min Rain = 0
KSB1 162041Z 32009KT 22/M04 A2994 RMK A01 T02151042  RH  018%=      5-min Rain = 0
KSB1 162042Z 31010KT 21/M04 A2994 RMK A01 T02141042  RH  018%=      5-min Rain = 0
KSB1 162043Z 31009KT 21/M04 A2994 RMK A01 T02131044  RH  017%=      5-min Rain = 0
KSB1 162044Z 31008KT 21/M04 A2994 RMK A01 T02131044  RH  017%=      5-min Rain = 0
KSB1 162045Z 29011KT 21/M04 A2994 RMK A01 T02141043  RH  017%=      5-min Rain = 0
KSB1 162046Z 29014KT 22/M04 A2994 RMK A01 T02151042  RH  017%=      5-min Rain = 0
KSB1 162047Z 30011KT 22/M04 A2994 RMK A01 T02151043  RH  017%=      5-min Rain = 0
KSB1 162048Z 28012KT 22/M04 A2994 RMK A01 T02161042  RH  017%=      5-min Rain = 0
KSB1 162049Z 28014KT 22/M04 A2994 RMK A01 T02181041  RH  017%=      5-min Rain = 0
KSB1 162050Z 29011KT 22/M04 A2994 RMK A01 T02171041  RH  017%=      5-min Rain = 0
KSB1 162051Z 30010KT 22/M04 A2994 RMK A01 T02181042  RH  017%=      5-min Rain = 0
KSB1 162052Z 28015KT 22/M04 A2994 RMK A01 T02211044  RH  017%=      5-min Rain = 0
KSB1 162053Z 28012KT 22/M05 A2994 RMK A01 T02201046  RH  016%=      5-min Rain = 0
KSB1 162054Z 26011KT 22/M05 A2994 RMK A01 T02171047  RH  017%=      5-min Rain = 0
KSB1 162055Z 27011KT 22/M05 A2993 RMK A01 T02161045  RH  017%=      5-min Rain = 0
KSB1 162056Z 27013KT 22/M04 A2993 RMK A01 T02191041  RH  017%=      5-min Rain = 0
KSB1 162057Z 28015G20KT 22/M04 A2993 RMK A01 T02211038  RH  017%=      5-min Rain = 0
KSB1 162058Z 28014KT 22/M04 A2993 RMK A01 T02211038  RH  017%=      5-min Rain = 0
KSB1 162059Z 29009KT 22/M04 A2993 RMK A01 T02201040  RH  017%=      5-min Rain = 0
KSB1 162100Z 30009KT 22/M04 A2993 RMK A01 T02221039  RH  017%=      5-min Rain = 0
KSB1 162101Z 31014KT 23/M04 A2993 RMK A01 T02251039  RH  017%=      5-min Rain = 0
KSB1 162102Z 29013G18KT 23/M04 A2993 RMK A01 T02251041  RH  016%=      5-min Rain = 0
KSB1 162103Z 30007KT 22/M04 A2993 RMK A01 T02221044  RH  017%=      5-min Rain = 0
KSB1 162104Z 30005KT 22/M04 A2993 RMK A01 T02191043  RH  017%=      5-min Rain = 0
KSB1 162105Z 30010G20KT 22/M04 A2992 RMK A01 T02181042  RH  017%=      5-min Rain = 0
KSB1 162106Z 27015KT 22/M04 A2992 RMK A01 T02181038  RH  018%=      5-min Rain = 0
KSB1 162107Z 29011KT 22/M04 A2992 RMK A01 T02151038  RH  018%=      5-min Rain = 0
KSB1 162108Z 33011KT 21/M04 A2992 RMK A01 T02141036  RH  018%=      5-min Rain = 0
KSB1 162109Z 31010KT 22/M03 A2992 RMK A01 T02151032  RH  019%=      5-min Rain = 0
KSB1 162110Z 31009KT 22/M03 A2992 RMK A01 T02161031  RH  019%=      5-min Rain = 0
KSB1 162111Z 27009KT 22/M03 A2992 RMK A01 T02171032  RH  019%=      5-min Rain = 0
KSB1 162112Z 26010KT 22/M04 A2992 RMK A01 T02171035  RH  018%=      5-min Rain = 0
KSB1 162113Z 28011KT 21/M04 A2992 RMK A01 T02141039  RH  018%=      5-min Rain = 0
KSB1 162114Z 29010KT 21/M04 A2992 RMK A01 T02131037  RH  018%=      5-min Rain = 0
KSB1 162115Z 27009KT 21/M04 A2992 RMK A01 T02121036  RH  019%=      5-min Rain = 0
KSB1 162116Z 27008KT 21/M03 A2992 RMK A01 T02141034  RH  019%=      5-min Rain = 0
KSB1 162117Z 26010KT 22/M03 A2992 RMK A01 T02211032  RH  018%=      5-min Rain = 0
KSB1 162118Z 25013KT 22/M04 A2992 RMK A01 T02211037  RH  017%=      5-min Rain = 0
KSB1 162119Z 26015KT 22/M04 A2992 RMK A01 T02181039  RH  018%=      5-min Rain = 0
KSB1 162120Z 27012KT 21/M04 A2992 RMK A01 T02141040  RH  018%=      5-min Rain = 0
KSB1 162121Z 28012KT 21/M04 A2992 RMK A01 T02111039  RH  018%=      5-min Rain = 0
KSB1 162122Z 28016KT 21/M04 A2992 RMK A01 T02111039  RH  018%=      5-min Rain = 0
KSB1 162123Z 28009G14KT 21/M04 A2992 RMK A01 T02101040  RH  018%=      5-min Rain = 0
KSB1 162124Z 27014KT 21/M04 A2992 RMK A01 T02111040  RH  018%=      5-min Rain = 0
KSB1 162125Z 26014KT 21/M04 A2992 RMK A01 T02121041  RH  018%=      5-min Rain = 0
KSB1 162126Z 26011KT 21/M04 A2992 RMK A01 T02131041  RH  018%=      5-min Rain = 0
KSB1 162127Z 28010KT 21/M04 A2992 RMK A01 T02121042  RH  018%=      5-min Rain = 0
KSB1 162128Z 29011KT 21/M04 A2992 RMK A01 T02111041  RH  018%=      5-min Rain = 0
KSB1 162129Z 28015KT 21/M04 A2992 RMK A01 T02111041  RH  018%=      5-min Rain = 0
KSB1 162130Z 27010KT 21/M04 A2992 RMK A01 T02111042  RH  018%=      5-min Rain = 0
KSB1 162131Z 27011KT 21/M04 A2992 RMK A01 T02111042  RH  018%=      5-min Rain = 0
KSB1 162132Z 28009KT 21/M04 A2992 RMK A01 T02111043  RH  018%=      5-min Rain = 0
KSB1 162133Z 28010KT 21/M04 A2992 RMK A01 T02091044  RH  018%=      5-min Rain = 0
KSB1 162134Z 28009KT 21/M04 A2992 RMK A01 T02091044  RH  018%=      5-min Rain = 0
KSB1 162135Z 30010G15KT 21/M04 A2992 RMK A01 T02101044  RH  018%=      5-min Rain = 0
KSB1 162136Z 31009KT 21/M05 A2992 RMK A01 T02101046  RH  017%=      5-min Rain = 0
KSB1 162137Z 31010G15KT 21/M05 A2992 RMK A01 T02091047  RH  017%=      5-min Rain = 0
KSB1 162138Z 30012KT 21/M05 A2992 RMK A01 T02111047  RH  017%=      5-min Rain = 0
KSB1 162139Z 30009KT 21/M05 A2992 RMK A01 T02121048  RH  017%=      5-min Rain = 0
KSB1 162140Z 30007KT 21/M05 A2992 RMK A01 T02131049  RH  017%=      5-min Rain = 0
KSB1 162141Z 31009KT 22/M05 A2991 RMK A01 T02151051  RH  016%=      5-min Rain = 0
KSB1 162142Z 30011KT 22/M05 A2991 RMK A01 T02201050  RH  016%=      5-min Rain = 0
KSB1 162143Z 32011KT 22/M05 A2991 RMK A01 T02211052  RH  016%=      5-min Rain = 0
KSB1 162144Z 32010KT 22/M05 A2991 RMK A01 T02201053  RH  016%=      5-min Rain = 0
KSB1 162145Z 33011KT 22/M05 A2991 RMK A01 T02221053  RH  015%=      5-min Rain = 0
KSB1 162146Z 33011KT 22/M05 A2991 RMK A01 T02231054  RH  015%=      5-min Rain = 0
KSB1 162147Z 30011KT 22/M05 A2992 RMK A01 T02231054  RH  015%=      5-min Rain = 0
KSB1 162148Z 29008KT 22/M05 A2992 RMK A01 T02231054  RH  015%=      5-min Rain = 0
KSB1 162149Z 28008KT 22/M05 A2991 RMK A01 T02221053  RH  015%=      5-min Rain = 0
KSB1 162150Z 31010G16KT 22/M05 A2992 RMK A01 T02201053  RH  016%=      5-min Rain = 0
KSB1 162151Z 28010KT 22/M06 A2992 RMK A01 T02191055  RH  016%=      5-min Rain = 0
KSB1 162152Z 27011KT 22/M06 A2991 RMK A01 T02171055  RH  016%=      5-min Rain = 0
KSB1 162153Z 28011KT 22/M06 A2991 RMK A01 T02191056  RH  015%=      5-min Rain = 0
KSB1 162154Z 32012KT 22/M06 A2991 RMK A01 T02211055  RH  015%=      5-min Rain = 0
KSB1 162155Z 32010KT 22/M06 A2991 RMK A01 T02221055  RH  015%=      5-min Rain = 0
KSB1 162156Z 32010KT 22/M06 A2991 RMK A01 T02211055  RH  015%=      5-min Rain = 0
KSB1 162157Z 31009KT 22/M05 A2991 RMK A01 T02221054  RH  015%=      5-min Rain = 0
KSB1 162158Z 33007G12KT 23/M05 A2991 RMK A01 T02261054  RH  015%=      5-min Rain = 0
KSB1 162159Z 33009KT 23/M06 A2991 RMK A01 T02281056  RH  015%=      5-min Rain = 0
KSB1 162200Z 31007G12KT 23/M06 A2991 RMK A01 T02261055  RH  015%=      5-min Rain = 0
KSB1 162201Z 30009KT 23/M06 A2991 RMK A01 T02261055  RH  015%=      5-min Rain = 0
KSB1 162202Z 29010KT 23/M06 A2991 RMK A01 T02261056  RH  015%=      5-min Rain = 0
KSB1 162203Z 29005KT 22/M06 A2991 RMK A01 T02241058  RH  015%=      5-min Rain = 0
KSB1 162204Z 29005KT 22/M06 A2991 RMK A01 T02221057  RH  015%=      5-min Rain = 0
KSB1 162205Z 29009KT 22/M06 A2991 RMK A01 T02231057  RH  015%=      5-min Rain = 0
KSB1 162206Z 29010KT 22/M06 A2991 RMK A01 T02231058  RH  015%=      5-min Rain = 0
KSB1 162207Z 31013KT 23/M06 A2991 RMK A01 T02251058  RH  015%=      5-min Rain = 0
KSB1 162208Z 30013KT 23/M06 A2991 RMK A01 T02251061  RH  014%=      5-min Rain = 0
KSB1 162209Z 29012KT 22/M06 A2991 RMK A01 T02201064  RH  014%=      5-min Rain = 0
KSB1 162210Z 30010KT 22/M06 A2991 RMK A01 T02181063  RH  015%=      5-min Rain = 0
KSB1 162211Z 30009KT 22/M06 A2991 RMK A01 T02191063  RH  015%=      5-min Rain = 0
KSB1 162212Z 30007KT 22/M06 A2991 RMK A01 T02181063  RH  015%=      5-min Rain = 0
KSB1 162213Z 30010KT 22/M06 A2991 RMK A01 T02161064  RH  015%=      5-min Rain = 0
KSB1 162214Z 31009KT 22/M07 A2991 RMK A01 T02151066  RH  015%=      5-min Rain = 0
KSB1 162215Z 32011KT 22/M06 A2991 RMK A01 T02171064  RH  015%=      5-min Rain = 0
KSB1 162216Z 32010KT 22/M07 A2991 RMK A01 T02191066  RH  014%=      5-min Rain = 0
KSB1 162217Z 32011KT 22/M07 A2991 RMK A01 T02191066  RH  014%=      5-min Rain = 0
KSB1 162218Z 33015KT 22/M06 A2991 RMK A01 T02191064  RH  014%=      5-min Rain = 0
KSB1 162219Z 33010KT 22/M07 A2991 RMK A01 T02201065  RH  014%=      5-min Rain = 0
KSB1 162220Z 32011KT 22/M06 A2991 RMK A01 T02211064  RH  014%=      5-min Rain = 0
KSB1 162221Z 32009KT 22/M06 A2991 RMK A01 T02211064  RH  014%=      5-min Rain = 0
KSB1 162222Z 31008KT 22/M07 A2991 RMK A01 T02191065  RH  014%=      5-min Rain = 0
KSB1 162223Z 30011G17KT 22/M07 A2991 RMK A01 T02171066  RH  014%=      5-min Rain = 0
KSB1 162224Z 31011KT 22/M07 A2991 RMK A01 T02151066  RH  015%=      5-min Rain = 0
KSB1 162225Z 31011KT 22/M07 A2991 RMK A01 T02161065  RH  015%=      5-min Rain = 0
KSB1 162226Z 32011KT 22/M06 A2991 RMK A01 T02181064  RH  015%=      5-min Rain = 0
KSB1 162227Z 32009KT 22/M07 A2991 RMK A01 T02201065  RH  014%=      5-min Rain = 0
KSB1 162228Z 33010KT 22/M07 A2991 RMK A01 T02201066  RH  014%=      5-min Rain = 0
KSB1 162229Z 32012KT 22/M07 A2991 RMK A01 T02221066  RH  014%=      5-min Rain = 0
KSB1 162230Z 33010KT 22/M07 A2991 RMK A01 T02231066  RH  014%=      5-min Rain = 0
KSB1 162231Z 31010KT 22/M07 A2991 RMK A01 T02231066  RH  014%=      5-min Rain = 0
KSB1 162232Z 31007KT 22/M06 A2991 RMK A01 T02231064  RH  014%=      5-min Rain = 0
KSB1 162233Z 32009KT 23/M06 A2991 RMK A01 T02261063  RH  014%=      5-min Rain = 0
KSB1 162234Z 31010KT 22/M06 A2991 RMK A01 T02211064  RH  014%=      5-min Rain = 0
KSB1 162235Z 33009KT 22/M06 A2991 RMK A01 T02181062  RH  015%=      5-min Rain = 0
KSB1 162236Z 31010KT 22/M06 A2991 RMK A01 T02181059  RH  015%=      5-min Rain = 0
KSB1 162237Z 30010KT 22/M06 A2991 RMK A01 T02191056  RH  015%=      5-min Rain = 0
KSB1 162238Z 31010KT 22/M05 A2991 RMK A01 T02211054  RH  015%=      5-min Rain = 0
KSB1 162239Z 31010KT 22/M06 A2992 RMK A01 T02191055  RH  015%=      5-min Rain = 0
KSB1 162240Z 30012KT 22/M06 A2992 RMK A01 T02181055  RH  016%=      5-min Rain = 0
KSB1 162241Z 31008KT 22/M06 A2992 RMK A01 T02151055  RH  016%=      5-min Rain = 0
KSB1 162242Z 32012KT 22/M06 A2992 RMK A01 T02151055  RH  016%=      5-min Rain = 0
KSB1 162243Z 31013KT 22/M06 A2992 RMK A01 T02161055  RH  016%=      5-min Rain = 0
KSB1 162244Z 31010KT 22/M06 A2992 RMK A01 T02151055  RH  016%=      5-min Rain = 0
KSB1 162245Z 31008KT 21/M06 A2992 RMK A01 T02141055  RH  016%=      5-min Rain = 0
KSB1 162246Z 32010KT 22/M06 A2992 RMK A01 T02161056  RH  016%=      5-min Rain = 0
KSB1 162247Z 30011KT 22/M05 A2992 RMK A01 T02161054  RH  016%=      5-min Rain = 0
KSB1 162248Z 29011KT 22/M05 A2992 RMK A01 T02151053  RH  016%=      5-min Rain = 0
KSB1 162249Z 29007KT 21/M05 A2992 RMK A01 T02131053  RH  016%=      5-min Rain = 0
KSB1 162250Z 33005KT 21/M05 A2991 RMK A01 T02131052  RH  016%=      5-min Rain = 0
KSB1 162251Z 32010KT 21/M05 A2991 RMK A01 T02141052  RH  016%=      5-min Rain = 0
KSB1 162252Z 32012KT 21/M05 A2991 RMK A01 T02141052  RH  016%=      5-min Rain = 0
KSB1 162253Z 31010KT 21/M05 A2991 RMK A01 T02131050  RH  017%=      5-min Rain = 0
KSB1 162254Z 32006KT 21/M05 A2991 RMK A01 T02111048  RH  017%=      5-min Rain = 0
KSB1 162255Z 31006KT 21/M05 A2991 RMK A01 T02121048  RH  017%=      5-min Rain = 0
KSB1 162256Z 31009KT 21/M05 A2991 RMK A01 T02121047  RH  017%=      5-min Rain = 0
KSB1 162257Z 31009KT 21/M05 A2991 RMK A01 T02121047  RH  017%=      5-min Rain = 0
KSB1 162258Z 31012KT 21/M05 A2991 RMK A01 T02131045  RH  017%=      5-min Rain = 0
KSB1 162259Z 31010KT 21/M05 A2992 RMK A01 T02131045  RH  017%=      5-min Rain = 0
KSB1 162300Z 32010KT 21/M05 A2991 RMK A01 T02121045  RH  017%=      5-min Rain = 0
KSB1 162301Z 32009KT 21/M04 A2991 RMK A01 T02121044  RH  018%=      5-min Rain = 0
KSB1 162302Z 30010KT 21/M04 A2991 RMK A01 T02111044  RH  018%=      5-min Rain = 0
KSB1 162303Z 30008KT 21/M05 A2991 RMK A01 T02121045  RH  017%=      5-min Rain = 0
KSB1 162304Z 29008KT 21/M05 A2991 RMK A01 T02121045  RH  017%=      5-min Rain = 0
KSB1 162305Z 31009KT 21/M05 A2991 RMK A01 T02121045  RH  017%=      5-min Rain = 0
KSB1 162306Z 31010KT 21/M05 A2991 RMK A01 T02121045  RH  017%=      5-min Rain = 0
KSB1 162307Z 31011KT 21/M05 A2991 RMK A01 T02121045  RH  017%=      5-min Rain = 0
KSB1 162308Z 31010KT 21/M05 A2991 RMK A01 T02121045  RH  017%=      5-min Rain = 0
KSB1 162309Z 31008KT 21/M05 A2991 RMK A01 T02111045  RH  018%=      5-min Rain = 0
KSB1 162310Z 33011KT 21/M04 A2991 RMK A01 T02121044  RH  018%=      5-min Rain = 0
KSB1 162311Z 33011KT 21/M04 A2991 RMK A01 T02131043  RH  018%=      5-min Rain = 0
KSB1 162312Z 33009KT 21/M04 A2991 RMK A01 T02141042  RH  018%=      5-min Rain = 0
KSB1 162313Z 32009KT 22/M04 A2991 RMK A01 T02151043  RH  017%=      5-min Rain = 0
KSB1 162314Z 31009KT 22/M04 A2991 RMK A01 T02151043  RH  017%=      5-min Rain = 0
KSB1 162315Z 33010KT 22/M04 A2991 RMK A01 T02151043  RH  017%=      5-min Rain = 0
KSB1 162316Z 32013KT 22/M04 A2991 RMK A01 T02181043  RH  017%=      5-min Rain = 0
KSB1 162317Z 31009KT 22/M04 A2991 RMK A01 T02191044  RH  017%=      5-min Rain = 0
KSB1 162318Z 31009G15KT 22/M04 A2991 RMK A01 T02221042  RH  017%=      5-min Rain = 0
KSB1 162319Z 31012KT 22/M04 A2991 RMK A01 T02241043  RH  016%=      5-min Rain = 0
KSB1 162320Z 32011KT 23/M04 A2991 RMK A01 T02251043  RH  016%=      5-min Rain = 0
KSB1 162321Z 32010KT 23/M04 A2991 RMK A01 T02251043  RH  016%=      5-min Rain = 0
KSB1 162322Z 32012KT 23/M04 A2991 RMK A01 T02251043  RH  016%=      5-min Rain = 0
KSB1 162323Z 32010KT 23/M04 A2991 RMK A01 T02251044  RH  016%=      5-min Rain = 0
KSB1 162324Z 32008KT 22/M05 A2991 RMK A01 T02221045  RH  016%=      5-min Rain = 0
KSB1 162325Z 33010KT 22/M04 A2991 RMK A01 T02201044  RH  017%=      5-min Rain = 0
KSB1 162326Z 32007KT 22/M04 A2991 RMK A01 T02211044  RH  017%=      5-min Rain = 0
KSB1 162327Z 33010KT 22/M04 A2991 RMK A01 T02241044  RH  016%=      5-min Rain = 0
KSB1 162328Z 33009KT 23/M05 A2991 RMK A01 T02251045  RH  016%=      5-min Rain = 0
KSB1 162329Z 33008KT 23/M05 A2991 RMK A01 T02261045  RH  016%=      5-min Rain = 0
KSB1 162330Z 34009KT 23/M05 A2991 RMK A01 T02261046  RH  016%=      5-min Rain = 0
KSB1 162331Z 32008KT 23/M05 A2991 RMK A01 T02251046  RH  016%=      5-min Rain = 0
KSB1 162332Z 32011KT 22/M05 A2991 RMK A01 T02221047  RH  016%=      5-min Rain = 0
KSB1 162333Z 33011KT 22/M05 A2991 RMK A01 T02191048  RH  016%=      5-min Rain = 0
KSB1 162334Z 32013KT 22/M05 A2991 RMK A01 T02181048  RH  016%=      5-min Rain = 0
KSB1 162335Z 32009KT 22/M05 A2991 RMK A01 T02171049  RH  016%=      5-min Rain = 0
KSB1 162336Z 31007KT 22/M05 A2991 RMK A01 T02151049  RH  017%=      5-min Rain = 0
KSB1 162337Z 30006KT 21/M05 A2992 RMK A01 T02141049  RH  017%=      5-min Rain = 0
KSB1 162338Z 30007KT 21/M05 A2992 RMK A01 T02141049  RH  017%=      5-min Rain = 0
KSB1 162339Z 30007KT 22/M05 A2992 RMK A01 T02151049  RH  017%=      5-min Rain = 0
KSB1 162340Z 31006KT 21/M05 A2992 RMK A01 T02141049  RH  017%=      5-min Rain = 0
KSB1 162341Z 33006KT 21/M05 A2992 RMK A01 T02141049  RH  017%=      5-min Rain = 0
KSB1 162342Z 32005KT 22/M05 A2991 RMK A01 T02151049  RH  017%=      5-min Rain = 0
KSB1 162343Z 31007KT 22/M05 A2992 RMK A01 T02161051  RH  016%=      5-min Rain = 0
KSB1 162344Z 31006KT 22/M05 A2992 RMK A01 T02161052  RH  016%=      5-min Rain = 0
KSB1 162345Z 31006KT 22/M05 A2992 RMK A01 T02161052  RH  016%=      5-min Rain = 0
KSB1 162346Z 31006KT 22/M05 A2992 RMK A01 T02151050  RH  016%=      5-min Rain = 0
KSB1 162347Z 34006KT 21/M05 A2992 RMK A01 T02131050  RH  017%=      5-min Rain = 0
KSB1 162348Z 35006KT 21/M05 A2992 RMK A01 T02131050  RH  017%=      5-min Rain = 0
KSB1 162349Z 34009KT 21/M05 A2992 RMK A01 T02131050  RH  017%=      5-min Rain = 0
KSB1 162350Z 32008KT 21/M05 A2992 RMK A01 T02131050  RH  017%=      5-min Rain = 0
KSB1 162351Z 31005KT 21/M05 A2992 RMK A01 T02111052  RH  017%=      5-min Rain = 0
KSB1 162352Z 32005KT 21/M05 A2992 RMK A01 T02091053  RH  017%=      5-min Rain = 0
KSB1 162353Z 28004KT 21/M05 A2992 RMK A01 T02091053  RH  017%=      5-min Rain = 0
KSB1 162354Z 30006KT 21/M05 A2992 RMK A01 T02101053  RH  017%=      5-min Rain = 0
KSB1 162355Z 30007KT 21/M05 A2992 RMK A01 T02111053  RH  017%=      5-min Rain = 0
KSB1 162356Z 30005KT 21/M05 A2992 RMK A01 T02111053  RH  017%=      5-min Rain = 0
KSB1 162357Z 32006G11KT 21/M05 A2991 RMK A01 T02101053  RH  017%=      5-min Rain = 0
KSB1 162358Z 32008KT 21/M05 A2991 RMK A01 T02101053  RH  017%=      5-min Rain = 0
KSB1 162359Z 36007KT 21/M05 A2991 RMK A01 T02101053  RH  017%=      5-min Rain = 0
KSB1 170000Z 35008KT 21/M05 A2991 RMK A01 T02101053  RH  017%=      5-min Rain = 0
KSB1 170001Z 34006KT 21/M05 A2991 RMK A01 T02101053  RH  017%=      5-min Rain = 0
KSB1 170002Z 34005KT 21/M05 A2991 RMK A01 T02101053  RH  017%=      5-min Rain = 0
KSB1 170003Z 33005KT 21/M05 A2991 RMK A01 T02111053  RH  016%=      5-min Rain = 0
KSB1 170004Z 36003KT 21/M05 A2991 RMK A01 T02101054  RH  016%=      5-min Rain = 0
KSB1 170005Z 35003KT 21/M05 A2991 RMK A01 T02101054  RH  017%=      5-min Rain = 0
KSB1 170006Z 34004KT 21/M05 A2991 RMK A01 T02091053  RH  017%=      5-min Rain = 0
KSB1 170007Z 32002KT 21/M05 A2991 RMK A01 T02091054  RH  017%=      5-min Rain = 0
KSB1 170008Z 34004KT 21/M05 A2991 RMK A01 T02091053  RH  017%=      5-min Rain = 0
KSB1 170009Z 32004KT 21/M05 A2991 RMK A01 T02091053  RH  017%=      5-min Rain = 0
KSB1 170010Z 33003KT 21/M05 A2991 RMK A01 T02091053  RH  017%=      5-min Rain = 0
KSB1 170011Z 32004KT 21/M05 A2991 RMK A01 T02101054  RH  016%=      5-min Rain = 0
KSB1 170012Z 34004KT 21/M05 A2991 RMK A01 T02111054  RH  016%=      5-min Rain = 0
KSB1 170013Z 34005KT 21/M05 A2991 RMK A01 T02121053  RH  016%=      5-min Rain = 0
KSB1 170014Z 36004KT 21/M05 A2991 RMK A01 T02111053  RH  016%=      5-min Rain = 0
KSB1 170015Z 01004KT 21/M05 A2991 RMK A01 T02111053  RH  016%=      5-min Rain = 0
KSB1 170016Z 00004KT 21/M05 A2991 RMK A01 T02111053  RH  016%=      5-min Rain = 0
KSB1 170017Z 35004KT 21/M05 A2991 RMK A01 T02111053  RH  016%=      5-min Rain = 0
KSB1 170018Z 35006KT 21/M05 A2991 RMK A01 T02111053  RH  016%=      5-min Rain = 0
KSB1 170019Z 28006KT 21/M05 A2991 RMK A01 T02101053  RH  017%=      5-min Rain = 0
KSB1 170020Z 30005KT 21/M05 A2991 RMK A01 T02101053  RH  017%=      5-min Rain = 0
KSB1 170021Z 31006KT 21/M05 A2991 RMK A01 T02101054  RH  016%=      5-min Rain = 0
KSB1 170022Z 30005KT 21/M06 A2991 RMK A01 T02101055  RH  016%=      5-min Rain = 0
KSB1 170023Z 29006KT 21/M06 A2991 RMK A01 T02111055  RH  016%=      5-min Rain = 0
KSB1 170024Z 29007KT 21/M05 A2991 RMK A01 T02111054  RH  016%=      5-min Rain = 0
KSB1 170025Z 31009KT 21/M05 A2991 RMK A01 T02101054  RH  016%=      5-min Rain = 0
KSB1 170026Z 32008KT 21/M05 A2991 RMK A01 T02101053  RH  017%=      5-min Rain = 0
KSB1 170027Z 33007KT 21/M05 A2991 RMK A01 T02101053  RH  017%=      5-min Rain = 0
KSB1 170028Z 35006KT 21/M05 A2991 RMK A01 T02101053  RH  017%=      5-min Rain = 0
KSB1 170029Z 33006KT 21/M05 A2991 RMK A01 T02101052  RH  017%=      5-min Rain = 0
KSB1 170030Z 34008KT 21/M05 A2991 RMK A01 T02091052  RH  017%=      5-min Rain = 0
KSB1 170031Z 32011KT 21/M05 A2991 RMK A01 T02101051  RH  017%=      5-min Rain = 0
KSB1 170032Z 31011KT 21/M05 A2991 RMK A01 T02091052  RH  017%=      5-min Rain = 0
KSB1 170033Z 31012KT 21/M05 A2991 RMK A01 T02081052  RH  017%=      5-min Rain = 0
KSB1 170034Z 31012KT 21/M05 A2991 RMK A01 T02081052  RH  017%=      5-min Rain = 0
KSB1 170035Z 31013KT 21/M05 A2991 RMK A01 T02081052  RH  017%=      5-min Rain = 0
KSB1 170036Z 31014KT 21/M05 A2991 RMK A01 T02071049  RH  017%=      5-min Rain = 0
KSB1 170037Z 31013KT 21/M05 A2991 RMK A01 T02071049  RH  018%=      5-min Rain = 0
KSB1 170038Z 31012KT 21/M05 A2991 RMK A01 T02071048  RH  018%=      5-min Rain = 0
KSB1 170039Z 32011KT 21/M05 A2991 RMK A01 T02061049  RH  018%=      5-min Rain = 0
KSB1 170040Z 31010KT 21/M05 A2991 RMK A01 T02061048  RH  018%=      5-min Rain = 0
KSB1 170041Z 31011KT 21/M05 A2991 RMK A01 T02061049  RH  018%=      5-min Rain = 0
KSB1 170042Z 31011KT 21/M05 A2991 RMK A01 T02061049  RH  018%=      5-min Rain = 0
KSB1 170043Z 31010KT 21/M05 A2991 RMK A01 T02061046  RH  018%=      5-min Rain = 0
KSB1 170044Z 32008KT 21/M05 A2991 RMK A01 T02051047  RH  018%=      5-min Rain = 0
KSB1 170045Z 32007KT 21/M05 A2992 RMK A01 T02051047  RH  018%=      5-min Rain = 0
KSB1 170046Z 31005KT 21/M05 A2992 RMK A01 T02051047  RH  018%=      5-min Rain = 0
KSB1 170047Z 31006KT 21/M05 A2992 RMK A01 T02061047  RH  018%=      5-min Rain = 0
KSB1 170048Z 32007KT 21/M05 A2992 RMK A01 T02061047  RH  018%=      5-min Rain = 0
KSB1 170049Z 31008KT 21/M05 A2992 RMK A01 T02061048  RH  018%=      5-min Rain = 0
KSB1 170050Z 30006KT 21/M05 A2992 RMK A01 T02061048  RH  018%=      5-min Rain = 0
KSB1 170051Z 29005KT 21/M05 A2992 RMK A01 T02061048  RH  018%=      5-min Rain = 0
KSB1 170052Z 31005KT 21/M05 A2992 RMK A01 T02061048  RH  018%=      5-min Rain = 0
KSB1 170053Z 31005KT 21/M05 A2992 RMK A01 T02061048  RH  018%=      5-min Rain = 0
KSB1 170054Z 31005KT 21/M05 A2992 RMK A01 T02071047  RH  018%=      5-min Rain = 0
KSB1 170055Z 30007KT 21/M05 A2992 RMK A01 T02071047  RH  018%=      5-min Rain = 0
KSB1 170056Z 31007KT 21/M05 A2992 RMK A01 T02061047  RH  018%=      5-min Rain = 0
KSB1 170057Z 31008KT 21/M05 A2992 RMK A01 T02071047  RH  018%=      5-min Rain = 0
KSB1 170058Z 31009KT 21/M05 A2992 RMK A01 T02071047  RH  018%=      5-min Rain = 0
KSB1 170059Z 31008KT 21/M05 A2992 RMK A01 T02061047  RH  018%=      5-min Rain = 0
KSB1 170100Z 31010KT 21/M05 A2992 RMK A01 T02061047  RH  018%=      5-min Rain = 0
KSB1 170101Z 31008KT 21/M05 A2992 RMK A01 T02061046  RH  018%=      5-min Rain = 0
KSB1 170102Z 31008KT 21/M05 A2992 RMK A01 T02061046  RH  018%=      5-min Rain = 0
KSB1 170103Z 31010KT 21/M05 A2992 RMK A01 T02051046  RH  018%=      5-min Rain = 0
KSB1 170104Z 31007KT 21/M05 A2992 RMK A01 T02051045  RH  018%=      5-min Rain = 0
KSB1 170105Z 33008KT 21/M05 A2992 RMK A01 T02051045  RH  018%=      5-min Rain = 0
KSB1 170106Z 33008KT 21/M05 A2992 RMK A01 T02051045  RH  018%=      5-min Rain = 0
KSB1 170107Z 33009KT 20/M05 A2992 RMK A01 T02041045  RH  018%=      5-min Rain = 0
KSB1 170108Z 34009KT 21/M05 A2992 RMK A01 T02051045  RH  018%=      5-min Rain = 0
KSB1 170109Z 33009KT 20/M05 A2992 RMK A01 T02041046  RH  018%=      5-min Rain = 0
KSB1 170110Z 33009KT 20/M05 A2993 RMK A01 T02041045  RH  018%=      5-min Rain = 0
KSB1 170111Z 33008KT 20/M05 A2993 RMK A01 T02041045  RH  018%=      5-min Rain = 0
KSB1 170112Z 32007KT 20/M05 A2993 RMK A01 T02041045  RH  018%=      5-min Rain = 0
KSB1 170113Z 32007KT 20/M04 A2993 RMK A01 T02041044  RH  018%=      5-min Rain = 0
KSB1 170114Z 33008KT 20/M04 A2993 RMK A01 T02041044  RH  018%=      5-min Rain = 0
KSB1 170115Z 33009KT 20/M04 A2993 RMK A01 T02041044  RH  018%=      5-min Rain = 0
KSB1 170116Z 33008KT 20/M05 A2993 RMK A01 T02031045  RH  018%=      5-min Rain = 0
KSB1 170117Z 34006KT 20/M05 A2993 RMK A01 T02031045  RH  018%=      5-min Rain = 0
KSB1 170118Z 34007KT 20/M05 A2993 RMK A01 T02031045  RH  018%=      5-min Rain = 0
KSB1 170119Z 33007KT 20/M05 A2993 RMK A01 T02031045  RH  018%=      5-min Rain = 0
KSB1 170120Z 34009KT 20/M05 A2993 RMK A01 T02021045  RH  018%=      5-min Rain = 0
KSB1 170121Z 33009KT 20/M05 A2993 RMK A01 T02021045  RH  019%=      5-min Rain = 0
KSB1 170122Z 33007KT 20/M05 A2993 RMK A01 T02021045  RH  019%=      5-min Rain = 0
KSB1 170123Z 33007KT 20/M05 A2993 RMK A01 T02021045  RH  019%=      5-min Rain = 0
KSB1 170124Z 33006KT 20/M05 A2993 RMK A01 T02021045  RH  018%=      5-min Rain = 0
KSB1 170125Z 34005KT 20/M05 A2993 RMK A01 T02021045  RH  019%=      5-min Rain = 0
KSB1 170126Z 34006KT 20/M05 A2994 RMK A01 T02021045  RH  019%=      5-min Rain = 0
KSB1 170127Z 33007KT 20/M05 A2994 RMK A01 T02011045  RH  019%=      5-min Rain = 0
KSB1 170128Z 32007KT 20/M05 A2994 RMK A01 T02011045  RH  019%=      5-min Rain = 0
KSB1 170129Z 31007KT 20/M04 A2994 RMK A01 T02011044  RH  019%=      5-min Rain = 0
KSB1 170130Z 33005KT 20/M04 A2994 RMK A01 T02011044  RH  019%=      5-min Rain = 0
KSB1 170131Z 33006KT 20/M05 A2993 RMK A01 T02011045  RH  019%=      5-min Rain = 0
KSB1 170132Z 32005KT 20/M05 A2993 RMK A01 T02001045  RH  019%=      5-min Rain = 0
KSB1 170133Z 32006KT 20/M04 A2993 RMK A01 T02001044  RH  019%=      5-min Rain = 0
KSB1 170134Z 32005KT 20/M05 A2994 RMK A01 T01991045  RH  019%=      5-min Rain = 0
KSB1 170135Z 33005KT 20/M05 A2994 RMK A01 T02001045  RH  019%=      5-min Rain = 0
KSB1 170136Z 32004KT 20/M04 A2994 RMK A01 T02001044  RH  019%=      5-min Rain = 0
KSB1 170137Z 32004KT 20/M04 A2994 RMK A01 T01991044  RH  019%=      5-min Rain = 0
KSB1 170138Z 31005KT 20/M04 A2994 RMK A01 T01991042  RH  019%=      5-min Rain = 0
KSB1 170139Z 31004KT 20/M04 A2994 RMK A01 T01991042  RH  019%=      5-min Rain = 0
KSB1 170140Z 31004KT 20/M04 A2994 RMK A01 T01991042  RH  019%=      5-min Rain = 0
KSB1 170141Z 32004KT 20/M04 A2994 RMK A01 T01991042  RH  019%=      5-min Rain = 0
KSB1 170142Z 32005KT 20/M04 A2994 RMK A01 T01991042  RH  019%=      5-min Rain = 0
KSB1 170143Z 32005KT 20/M04 A2994 RMK A01 T01991041  RH  019%=      5-min Rain = 0
KSB1 170144Z 32005KT 20/M04 A2994 RMK A01 T01991042  RH  019%=      5-min Rain = 0
KSB1 170145Z 32006KT 20/M04 A2994 RMK A01 T01981042  RH  019%=      5-min Rain = 0
KSB1 170146Z 32007KT 20/M04 A2994 RMK A01 T01981042  RH  019%=      5-min Rain = 0
KSB1 170147Z 31005KT 20/M04 A2994 RMK A01 T01981042  RH  019%=      5-min Rain = 0
KSB1 170148Z 31007KT 20/M04 A2994 RMK A01 T01991042  RH  019%=      5-min Rain = 0
KSB1 170149Z 31006KT 20/M04 A2994 RMK A01 T01981042  RH  019%=      5-min Rain = 0
KSB1 170150Z 31007KT 20/M04 A2994 RMK A01 T01991042  RH  019%=      5-min Rain = 0
KSB1 170151Z 32007KT 20/M04 A2995 RMK A01 T01981042  RH  019%=      5-min Rain = 0
KSB1 170152Z 32006KT 20/M04 A2995 RMK A01 T01981042  RH  019%=      5-min Rain = 0
KSB1 170153Z 32007KT 20/M04 A2995 RMK A01 T01981043  RH  019%=      5-min Rain = 0
KSB1 170154Z 32007KT 20/M04 A2995 RMK A01 T01981043  RH  019%=      5-min Rain = 0
KSB1 170155Z 32009KT 20/M04 A2995 RMK A01 T01981043  RH  019%=      5-min Rain = 0
KSB1 170156Z 31009KT 20/M04 A2995 RMK A01 T01981044  RH  019%=      5-min Rain = 0
KSB1 170157Z 31009KT 20/M05 A2995 RMK A01 T01981045  RH  019%=      5-min Rain = 0
KSB1 170158Z 31009KT 20/M05 A2995 RMK A01 T01981045  RH  019%=      5-min Rain = 0
KSB1 170159Z 31008KT 20/M05 A2995 RMK A01 T01991046  RH  019%=      5-min Rain = 0
KSB1 170200Z 31009KT 20/M05 A2995 RMK A01 T01981046  RH  019%=      5-min Rain = 0
KSB1 170201Z 31009KT 20/M05 A2995 RMK A01 T01981046  RH  019%=      5-min Rain = 0
KSB1 170202Z 32008KT 20/M05 A2995 RMK A01 T01981047  RH  019%=      5-min Rain = 0
KSB1 170203Z 32009KT 20/M05 A2995 RMK A01 T01981047  RH  019%=      5-min Rain = 0
KSB1 170204Z 32006KT 20/M05 A2995 RMK A01 T01981047  RH  019%=      5-min Rain = 0
KSB1 170205Z 31008KT 20/M05 A2995 RMK A01 T01981047  RH  019%=      5-min Rain = 0
KSB1 170206Z 31008KT 20/M05 A2995 RMK A01 T01981048  RH  019%=      5-min Rain = 0
KSB1 170207Z 32009KT 20/M05 A2995 RMK A01 T01971049  RH  018%=      5-min Rain = 0
KSB1 170208Z 32008KT 20/M05 A2995 RMK A01 T01981050  RH  018%=      5-min Rain = 0
KSB1 170209Z 31007KT 20/M05 A2995 RMK A01 T01981050  RH  018%=      5-min Rain = 0
KSB1 170210Z 32008KT 20/M05 A2995 RMK A01 T01981051  RH  018%=      5-min Rain = 0
KSB1 170211Z 32007KT 20/M05 A2996 RMK A01 T01981050  RH  018%=      5-min Rain = 0
KSB1 170212Z 31009KT 20/M05 A2996 RMK A01 T01971050  RH  018%=      5-min Rain = 0
KSB1 170213Z 31010KT 20/M05 A2996 RMK A01 T01981050  RH  018%=      5-min Rain = 0
KSB1 170214Z 31010KT 20/M05 A2996 RMK A01 T01971051  RH  018%=      5-min Rain = 0
KSB1 170215Z 31008KT 20/M05 A2996 RMK A01 T01971052  RH  018%=      5-min Rain = 0
KSB1 170216Z 31009KT 20/M05 A2996 RMK A01 T01971052  RH  018%=      5-min Rain = 0
KSB1 170217Z 31009KT 20/M05 A2996 RMK A01 T01981052  RH  018%=      5-min Rain = 0
KSB1 170218Z 32008KT 20/M05 A2996 RMK A01 T01981052  RH  018%=      5-min Rain = 0
KSB1 170219Z 31007KT 20/M05 A2996 RMK A01 T01971052  RH  018%=      5-min Rain = 0
KSB1 170220Z 31007KT 20/M05 A2996 RMK A01 T01971052  RH  018%=      5-min Rain = 0
KSB1 170221Z 32009KT 20/M05 A2996 RMK A01 T01971052  RH  018%=      5-min Rain = 0
KSB1 170222Z 31007KT 20/M05 A2996 RMK A01 T01971052  RH  018%=      5-min Rain = 0
KSB1 170223Z 31007KT 20/M05 A2996 RMK A01 T01961052  RH  018%=      5-min Rain = 0
KSB1 170224Z 32010KT 20/M05 A2996 RMK A01 T01961052  RH  018%=      5-min Rain = 0
KSB1 170225Z 32010KT 20/M05 A2996 RMK A01 T01961051  RH  018%=      5-min Rain = 0
KSB1 170226Z 32010KT 20/M05 A2996 RMK A01 T01961052  RH  018%=      5-min Rain = 0
KSB1 170227Z 32011KT 20/M05 A2996 RMK A01 T01961054  RH  018%=      5-min Rain = 0
KSB1 170228Z 31009KT 20/M06 A2997 RMK A01 T01961055  RH  018%=      5-min Rain = 0
KSB1 170229Z 32009KT 20/M06 A2997 RMK A01 T01961055  RH  018%=      5-min Rain = 0
KSB1 170230Z 31011KT 20/M05 A2997 RMK A01 T01961052  RH  018%=      5-min Rain = 0
KSB1 170231Z 32011KT 20/M05 A2997 RMK A01 T01961045  RH  019%=      5-min Rain = 0
KSB1 170232Z 31010KT 20/M04 A2997 RMK A01 T01971037  RH  020%=      5-min Rain = 0
KSB1 170233Z 30010KT 20/M04 A2997 RMK A01 T01971036  RH  020%=      5-min Rain = 0
KSB1 170234Z 30010KT 20/M04 A2997 RMK A01 T01981040  RH  020%=      5-min Rain = 0
KSB1 170235Z 30009KT 20/M05 A2997 RMK A01 T01981045  RH  019%=      5-min Rain = 0
KSB1 170236Z 31008KT 20/M05 A2997 RMK A01 T01981048  RH  019%=      5-min Rain = 0
KSB1 170237Z 32007KT 20/M05 A2997 RMK A01 T01981050  RH  018%=      5-min Rain = 0
KSB1 170238Z 31006KT 20/M05 A2997 RMK A01 T01971050  RH  018%=      5-min Rain = 0
KSB1 170239Z 32005KT 20/M05 A2997 RMK A01 T01971052  RH  018%=      5-min Rain = 0
KSB1 170240Z 31007KT 20/M05 A2997 RMK A01 T01961053  RH  018%=      5-min Rain = 0
KSB1 170241Z 32006KT 20/M06 A2997 RMK A01 T01961055  RH  018%=      5-min Rain = 0
KSB1 170242Z 31007KT 20/M06 A2997 RMK A01 T01961055  RH  018%=      5-min Rain = 0
KSB1 170243Z 31008KT 20/M06 A2997 RMK A01 T01951057  RH  018%=      5-min Rain = 0
KSB1 170244Z 30009KT 20/M06 A2997 RMK A01 T01951061  RH  017%=      5-min Rain = 0
KSB1 170245Z 31009KT 20/M06 A2997 RMK A01 T01951064  RH  017%=      5-min Rain = 0
KSB1 170246Z 31008KT 20/M07 A2997 RMK A01 T01961068  RH  016%=      5-min Rain = 0
KSB1 170247Z 30008KT 20/M07 A2997 RMK A01 T01961068  RH  016%=      5-min Rain = 0
KSB1 170248Z 30008KT 20/M07 A2997 RMK A01 T01961071  RH  016%=      5-min Rain = 0
KSB1 170249Z 30007KT 20/M07 A2997 RMK A01 T01971071  RH  016%=      5-min Rain = 0
KSB1 170250Z 31006KT 20/M07 A2998 RMK A01 T01971070  RH  016%=      5-min Rain = 0
KSB1 170251Z 30006KT 20/M07 A2998 RMK A01 T01961069  RH  016%=      5-min Rain = 0
KSB1 170252Z 30008KT 20/M07 A2998 RMK A01 T01961069  RH  016%=      5-min Rain = 0
KSB1 170253Z 30006KT 20/M07 A2998 RMK A01 T01961069  RH  016%=      5-min Rain = 0
KSB1 170254Z 29005KT 20/M07 A2998 RMK A01 T01961069  RH  016%=      5-min Rain = 0
KSB1 170255Z 29005KT 20/M07 A2998 RMK A01 T01961069  RH  016%=      5-min Rain = 0
KSB1 170256Z 30005KT 20/M07 A2998 RMK A01 T01961069  RH  016%=      5-min Rain = 0
KSB1 170257Z 30006KT 20/M07 A2998 RMK A01 T01951069  RH  016%=      5-min Rain = 0
KSB1 170258Z 29004KT 20/M07 A2998 RMK A01 T01951069  RH  016%=      5-min Rain = 0
KSB1 170259Z 28004KT 19/M07 A2998 RMK A01 T01941065  RH  017%=      5-min Rain = 0
KSB1 170300Z 28004KT 19/M06 A2998 RMK A01 T01931063  RH  017%=      5-min Rain = 0
KSB1 170301Z 28004KT 19/M06 A2998 RMK A01 T01911063  RH  017%=      5-min Rain = 0
KSB1 170302Z 29004KT 19/M06 A2998 RMK A01 T01901062  RH  018%=      5-min Rain = 0
KSB1 170303Z 30005KT 19/M06 A2998 RMK A01 T01891063  RH  018%=      5-min Rain = 0
KSB1 170304Z 31006KT 19/M06 A2998 RMK A01 T01891064  RH  017%=      5-min Rain = 0
KSB1 170305Z 31009KT 19/M07 A2998 RMK A01 T01891069  RH  017%=      5-min Rain = 0
KSB1 170306Z 32007KT 19/M06 A2998 RMK A01 T01921058  RH  018%=      5-min Rain = 0
KSB1 170307Z 34005KT 19/M05 A2998 RMK A01 T01941049  RH  019%=      5-min Rain = 0
KSB1 170308Z 34005KT 20/M05 A2998 RMK A01 T01951051  RH  018%=      5-min Rain = 0
KSB1 170309Z 35005KT 20/M06 A2998 RMK A01 T01961059  RH  017%=      5-min Rain = 0
KSB1 170310Z 00006KT 20/M07 A2998 RMK A01 T01961067  RH  016%=      5-min Rain = 0
KSB1 170311Z 01007KT 20/M07 A2998 RMK A01 T01951069  RH  016%=      5-min Rain = 0
KSB1 170312Z 32006KT 20/M07 A2998 RMK A01 T01951066  RH  017%=      5-min Rain = 0
KSB1 170313Z 30006KT 20/M07 A2998 RMK A01 T01951067  RH  016%=      5-min Rain = 0
KSB1 170314Z 30006KT 19/M07 A2998 RMK A01 T01931069  RH  016%=      5-min Rain = 0
KSB1 170315Z 29006KT 19/M07 A2998 RMK A01 T01921073  RH  016%=      5-min Rain = 0
KSB1 170316Z 30008KT 19/M07 A2999 RMK A01 T01921074  RH  016%=      5-min Rain = 0
KSB1 170317Z 30007KT 19/M08 A2999 RMK A01 T01911077  RH  016%=      5-min Rain = 0
KSB1 170318Z 29008KT 19/M08 A2999 RMK A01 T01921077  RH  015%=      5-min Rain = 0
KSB1 170319Z 29007KT 19/M08 A2999 RMK A01 T01921076  RH  016%=      5-min Rain = 0
KSB1 170320Z 28008KT 19/M06 A2999 RMK A01 T01921062  RH  017%=      5-min Rain = 0
KSB1 170321Z 28007KT 19/M05 A2998 RMK A01 T01921046  RH  020%=      5-min Rain = 0
KSB1 170322Z 28007KT 19/M04 A2998 RMK A01 T01931039  RH  021%=      5-min Rain = 0
KSB1 170323Z 29006KT 19/M05 A2998 RMK A01 T01931045  RH  020%=      5-min Rain = 0
KSB1 170324Z 27005KT 19/M04 A2999 RMK A01 T01931043  RH  020%=      5-min Rain = 0
KSB1 170325Z 28003KT 19/M04 A2999 RMK A01 T01931038  RH  021%=      5-min Rain = 0
KSB1 170326Z 28004KT 19/M04 A2999 RMK A01 T01931041  RH  020%=      5-min Rain = 0
KSB1 170327Z 27004KT 19/M04 A2999 RMK A01 T01931043  RH  020%=      5-min Rain = 0
KSB1 170328Z 27005KT 19/M05 A2999 RMK A01 T01941045  RH  019%=      5-min Rain = 0
KSB1 170329Z 27007KT 19/M05 A2999 RMK A01 T01941045  RH  020%=      5-min Rain = 0
KSB1 170330Z 28006KT 19/M05 A2999 RMK A01 T01941046  RH  019%=      5-min Rain = 0
KSB1 170331Z 30004KT 19/M05 A2999 RMK A01 T01941047  RH  019%=      5-min Rain = 0
KSB1 170332Z 31005KT 19/M05 A2999 RMK A01 T01941049  RH  019%=      5-min Rain = 0
KSB1 170333Z 30004KT 19/M05 A2999 RMK A01 T01941053  RH  018%=      5-min Rain = 0
KSB1 170334Z 29004KT 19/M05 A2999 RMK A01 T01941053  RH  018%=      5-min Rain = 0
KSB1 170335Z 27004KT 19/M05 A2999 RMK A01 T01941053  RH  018%=      5-min Rain = 0
KSB1 170336Z 28004KT 19/M06 A2999 RMK A01 T01941055  RH  018%=      5-min Rain = 0
KSB1 170337Z 29005KT 19/M06 A2999 RMK A01 T01931059  RH  018%=      5-min Rain = 0
KSB1 170338Z 29004KT 19/M06 A2999 RMK A01 T01911062  RH  017%=      5-min Rain = 0
KSB1 170339Z 29004KT 19/M06 A2999 RMK A01 T01911063  RH  017%=      5-min Rain = 0
KSB1 170340Z 29004KT 19/M07 A2999 RMK A01 T01911065  RH  017%=      5-min Rain = 0
KSB1 170341Z 29004KT 19/M07 A2999 RMK A01 T01911066  RH  017%=      5-min Rain = 0
KSB1 170342Z 28004KT 19/M07 A2999 RMK A01 T01911068  RH  017%=      5-min Rain = 0
KSB1 170343Z 28004KT 19/M07 A2999 RMK A01 T01901071  RH  016%=      5-min Rain = 0
KSB1 170344Z 29003KT 19/M07 A2999 RMK A01 T01901072  RH  016%=      5-min Rain = 0
KSB1 170345Z 29003KT 19/M07 A2999 RMK A01 T01901074  RH  016%=      5-min Rain = 0
KSB1 170346Z 30003KT 19/M07 A2999 RMK A01 T01901074  RH  016%=      5-min Rain = 0
KSB1 170347Z 30002KT 19/M08 A2999 RMK A01 T01891075  RH  016%=      5-min Rain = 0
KSB1 170348Z 29002KT 19/M08 A2999 RMK A01 T01891075  RH  016%=      5-min Rain = 0
KSB1 170349Z 29003KT 19/M07 A2999 RMK A01 T01891074  RH  016%=      5-min Rain = 0
KSB1 170350Z 27004KT 19/M07 A2999 RMK A01 T01891074  RH  016%=      5-min Rain = 0
KSB1 170351Z 26005KT 19/M07 A2999 RMK A01 T01881074  RH  016%=      5-min Rain = 0
KSB1 170352Z 26005KT 19/M07 A2999 RMK A01 T01861074  RH  016%=      5-min Rain = 0
KSB1 170353Z 25009G14KT 19/M07 A2999 RMK A01 T01851069  RH  017%=      5-min Rain = 0
KSB1 170354Z 24003KT 19/M03 A2999 RMK A01 T01861033  RH  023%=      5-min Rain = 0
KSB1 170355Z 20004KT 19/M02 A2999 RMK A01 T01871021  RH  024%=      5-min Rain = 0
KSB1 170356Z 20011G18KT 19/M03 A2999 RMK A01 T01881027  RH  023%=      5-min Rain = 0
KSB1 170357Z 21015G21KT 19/M03 A2999 RMK A01 T01891027  RH  023%=      5-min Rain = 0
KSB1 170358Z 23022KT 19/M02 A2998 RMK A01 T01901024  RH  023%=      5-min Rain = 0
KSB1 170359Z 23018KT 19/M01 A2998 RMK A01 T01901011  RH  026%=      5-min Rain = 0
KSB1 170400Z 22009G16KT 19/M02 A2999 RMK A01 T01881018  RH  025%=      5-min Rain = 0
KSB1 170401Z 23005KT 19/M02 A2999 RMK A01 T01891020  RH  024%=      5-min Rain = 0
KSB1 170402Z 24003KT 19/M01 A2999 RMK A01 T01891014  RH  025%=      5-min Rain = 0
KSB1 170403Z 28002KT 19/M02 A2999 RMK A01 T01891021  RH  024%=      5-min Rain = 0
KSB1 170404Z 28002KT 19/M03 A2999 RMK A01 T01891027  RH  023%=      5-min Rain = 0
KSB1 170405Z 30002KT 19/M03 A2998 RMK A01 T01891030  RH  022%=      5-min Rain = 0
KSB1 170406Z 21003KT 19/M03 A2999 RMK A01 T01901028  RH  023%=      5-min Rain = 0
KSB1 170407Z 17004KT 19/M02 A2999 RMK A01 T01891022  RH  024%=      5-min Rain = 0
KSB1 170408Z 15005KT 19/M02 A2998 RMK A01 T01891020  RH  024%=      5-min Rain = 0
KSB1 170409Z 10003G8KT 19/M03 A2998 RMK A01 T01891025  RH  023%=      5-min Rain = 0
KSB1 170410Z 22002KT 19/M03 A2998 RMK A01 T01891029  RH  023%=      5-min Rain = 0
KSB1 170411Z 22003KT 19/M02 A2999 RMK A01 T01901023  RH  024%=      5-min Rain = 0
KSB1 170412Z 24003KT 19/M02 A2999 RMK A01 T01891023  RH  024%=      5-min Rain = 0
KSB1 170413Z 26004KT 19/M03 A2999 RMK A01 T01881029  RH  023%=      5-min Rain = 0
KSB1 170414Z 26004KT 19/M03 A2999 RMK A01 T01881033  RH  022%=      5-min Rain = 0
KSB1 170415Z 25004KT 19/M03 A2999 RMK A01 T01881034  RH  022%=      5-min Rain = 0
KSB1 170416Z 25004KT 19/M04 A2999 RMK A01 T01871035  RH  022%=      5-min Rain = 0
KSB1 170417Z 24004KT 19/M03 A2999 RMK A01 T01871034  RH  022%=      5-min Rain = 0
KSB1 170418Z 24004KT 19/M03 A2998 RMK A01 T01871034  RH  022%=      5-min Rain = 0
KSB1 170419Z 26004KT 19/M04 A2998 RMK A01 T01861035  RH  022%=      5-min Rain = 0
KSB1 170420Z 27004KT 19/M04 A2998 RMK A01 T01861041  RH  021%=      5-min Rain = 0
KSB1 170421Z 27005KT 19/M04 A2998 RMK A01 T01851043  RH  021%=      5-min Rain = 0
KSB1 170422Z 27005KT 19/M04 A2999 RMK A01 T01861043  RH  021%=      5-min Rain = 0
KSB1 170423Z 27005KT 19/M04 A2999 RMK A01 T01851044  RH  021%=      5-min Rain = 0
KSB1 170424Z 28005KT 18/M05 A2999 RMK A01 T01841046  RH  021%=      5-min Rain = 0
KSB1 170425Z 28005KT 18/M05 A2999 RMK A01 T01841048  RH  020%=      5-min Rain = 0
KSB1 170426Z 27005KT 18/M05 A2999 RMK A01 T01841049  RH  020%=      5-min Rain = 0
KSB1 170427Z 27005KT 18/M05 A2999 RMK A01 T01831051  RH  020%=      5-min Rain = 0
KSB1 170428Z 27005KT 18/M06 A2999 RMK A01 T01831056  RH  019%=      5-min Rain = 0
KSB1 170429Z 26005KT 18/M06 A2999 RMK A01 T01831058  RH  019%=      5-min Rain = 0
KSB1 170430Z 26005KT 18/M06 A2999 RMK A01 T01821061  RH  019%=      5-min Rain = 0
KSB1 170431Z 25005KT 18/M06 A2999 RMK A01 T01811064  RH  018%=      5-min Rain = 0
KSB1 170432Z 25004KT 18/M07 A2999 RMK A01 T01811068  RH  018%=      5-min Rain = 0
KSB1 170433Z 25004KT 18/M07 A2999 RMK A01 T01811071  RH  017%=      5-min Rain = 0
KSB1 170434Z 24004KT 18/M07 A2999 RMK A01 T01811072  RH  017%=      5-min Rain = 0
KSB1 170435Z 25003KT 18/M07 A2999 RMK A01 T01801073  RH  017%=      5-min Rain = 0
KSB1 170436Z 26003KT 18/M07 A2999 RMK A01 T01801073  RH  017%=      5-min Rain = 0
KSB1 170437Z 27003KT 18/M07 A2999 RMK A01 T01801074  RH  017%=      5-min Rain = 0
KSB1 170438Z 27003KT 18/M08 A2999 RMK A01 T01801076  RH  017%=      5-min Rain = 0
KSB1 170439Z 27003KT 18/M08 A2999 RMK A01 T01811077  RH  017%=      5-min Rain = 0
KSB1 170440Z 27003KT 18/M08 A2999 RMK A01 T01821077  RH  016%=      5-min Rain = 0
KSB1 170441Z 27003KT 18/M08 A2999 RMK A01 T01821076  RH  016%=      5-min Rain = 0
KSB1 170442Z 27002KT 18/M08 A2999 RMK A01 T01821078  RH  016%=      5-min Rain = 0
KSB1 170443Z 26002KT 18/M08 A2999 RMK A01 T01831080  RH  016%=      5-min Rain = 0
KSB1 170444Z 26002KT 18/M08 A2999 RMK A01 T01831081  RH  016%=      5-min Rain = 0
KSB1 170445Z 26003KT 18/M08 A2999 RMK A01 T01831081  RH  016%=      5-min Rain = 0
KSB1 170446Z 26003KT 18/M08 A2999 RMK A01 T01841081  RH  016%=      5-min Rain = 0
KSB1 170447Z 26003KT 18/M08 A2999 RMK A01 T01841080  RH  016%=      5-min Rain = 0
KSB1 170448Z 26003KT 18/M08 A2999 RMK A01 T01841080  RH  016%=      5-min Rain = 0
KSB1 170449Z 26003KT 18/M08 A2999 RMK A01 T01841080  RH  016%=      5-min Rain = 0
KSB1 170450Z 26003KT 18/M08 A2999 RMK A01 T01831081  RH  016%=      5-min Rain = 0
KSB1 170451Z 26003KT 18/M08 A2999 RMK A01 T01831082  RH  016%=      5-min Rain = 0
KSB1 170452Z 26003KT 18/M08 A2999 RMK A01 T01831082  RH  016%=      5-min Rain = 0
KSB1 170453Z 27003KT 18/M08 A2999 RMK A01 T01841082  RH  016%=      5-min Rain = 0
KSB1 170454Z 27003KT 18/M08 A2999 RMK A01 T01841082  RH  016%=      5-min Rain = 0
KSB1 170455Z 27003KT 18/M08 A2999 RMK A01 T01841082  RH  016%=      5-min Rain = 0
KSB1 170456Z 27003KT 18/M08 A2999 RMK A01 T01841083  RH  015%=      5-min Rain = 0
KSB1 170457Z 28003KT 18/M08 A2999 RMK A01 T01841083  RH  015%=      5-min Rain = 0
KSB1 170458Z 28002KT 18/M08 A2999 RMK A01 T01841084  RH  015%=      5-min Rain = 0
KSB1 170459Z 28002KT 19/M08 A2999 RMK A01 T01851083  RH  015%=      5-min Rain = 0

Page generated in 0.0655 seconds.